Observation data for Tarzan on 02/23/2019      Previous  Date  Next       Current Mesonet Observations  Soil Data  Daily Summary Page  Observations in Plain Language
KTA1 230600Z 19017KT 13/07 A2975 RMK A01 T01290070  RH  067%=      5-min Rain = 0
KTA1 230601Z 19013KT 13/07 A2975 RMK A01 T01300070  RH  067%=      5-min Rain = 0
KTA1 230602Z 19012KT 13/07 A2975 RMK A01 T01300070  RH  067%=      5-min Rain = 0
KTA1 230603Z 19010KT 13/07 A2975 RMK A01 T01300071  RH  067%=      5-min Rain = 0
KTA1 230604Z 19011KT 13/07 A2975 RMK A01 T01290070  RH  067%=      5-min Rain = 0
KTA1 230605Z 19009KT 13/07 A2975 RMK A01 T01290070  RH  067%=      5-min Rain = 0
KTA1 230606Z 19010KT 13/07 A2975 RMK A01 T01290070  RH  067%=      5-min Rain = 0
KTA1 230607Z 19009KT 13/07 A2975 RMK A01 T01290070  RH  067%=      5-min Rain = 0
KTA1 230608Z 19009KT 13/07 A2974 RMK A01 T01290070  RH  067%=      5-min Rain = 0
KTA1 230609Z 19008KT 13/07 A2974 RMK A01 T01290070  RH  067%=      5-min Rain = 0
KTA1 230610Z 19010KT 13/07 A2975 RMK A01 T01280069  RH  067%=      5-min Rain = 0
KTA1 230611Z 19010KT 13/07 A2975 RMK A01 T01280068  RH  067%=      5-min Rain = 0
KTA1 230612Z 19010KT 13/07 A2975 RMK A01 T01280068  RH  067%=      5-min Rain = 0
KTA1 230613Z 20011KT 13/07 A2975 RMK A01 T01290068  RH  067%=      5-min Rain = 0
KTA1 230614Z 20011KT 13/07 A2975 RMK A01 T01290068  RH  066%=      5-min Rain = 0
KTA1 230615Z 20011KT 13/07 A2975 RMK A01 T01300068  RH  066%=      5-min Rain = 0
KTA1 230616Z 20010KT 13/07 A2975 RMK A01 T01300068  RH  066%=      5-min Rain = 0
KTA1 230617Z 20011KT 13/07 A2975 RMK A01 T01300068  RH  066%=      5-min Rain = 0
KTA1 230618Z 20011KT 13/07 A2975 RMK A01 T01300068  RH  066%=      5-min Rain = 0
KTA1 230619Z 20011KT 13/07 A2975 RMK A01 T01300068  RH  066%=      5-min Rain = 0
KTA1 230620Z 20010KT 13/07 A2975 RMK A01 T01300068  RH  066%=      5-min Rain = 0
KTA1 230621Z 19010KT 13/07 A2975 RMK A01 T01300068  RH  066%=      5-min Rain = 0
KTA1 230622Z 20011G16KT 13/07 A2975 RMK A01 T01300068  RH  066%=      5-min Rain = 0
KTA1 230623Z 19011KT 13/07 A2975 RMK A01 T01300068  RH  066%=      5-min Rain = 0
KTA1 230624Z 20012KT 13/07 A2975 RMK A01 T01310069  RH  066%=      5-min Rain = 0
KTA1 230625Z 20012KT 13/07 A2975 RMK A01 T01310069  RH  066%=      5-min Rain = 0
KTA1 230626Z 20011KT 13/07 A2975 RMK A01 T01310069  RH  066%=      5-min Rain = 0
KTA1 230627Z 20012KT 13/07 A2975 RMK A01 T01320069  RH  066%=      5-min Rain = 0
KTA1 230628Z 20013KT 13/07 A2975 RMK A01 T01320070  RH  066%=      5-min Rain = 0
KTA1 230629Z 20012KT 13/07 A2975 RMK A01 T01320070  RH  066%=      5-min Rain = 0
KTA1 230630Z 21010KT 13/07 A2976 RMK A01 T01320071  RH  066%=      5-min Rain = 0
KTA1 230631Z 20010KT 13/07 A2976 RMK A01 T01320071  RH  066%=      5-min Rain = 0
KTA1 230632Z 21014KT 13/07 A2976 RMK A01 T01320072  RH  067%=      5-min Rain = 0
KTA1 230633Z 22015KT 13/07 A2976 RMK A01 T01330074  RH  067%=      5-min Rain = 0
KTA1 230634Z 23020G25KT 14/08 A2976 RMK A01 T01350075  RH  067%=      5-min Rain = 0
KTA1 230635Z 24022G29KT 14/06 A2976 RMK A01 T01380063  RH  060%=      5-min Rain = 0
KTA1 230636Z 24023G28KT 14/04 A2976 RMK A01 T01400037  RH  050%=      5-min Rain = 0
KTA1 230637Z 23019G24KT 14/03 A2976 RMK A01 T01420030  RH  047%=      5-min Rain = 0
KTA1 230638Z 23019KT 14/03 A2976 RMK A01 T01420032  RH  048%=      5-min Rain = 0
KTA1 230639Z 23021G27KT 14/02 A2976 RMK A01 T01400021  RH  044%=      5-min Rain = 0
KTA1 230640Z 24022G28KT 14/01 A2976 RMK A01 T01400012  RH  042%=      5-min Rain = 0
KTA1 230641Z 23025G31KT 14/01 A2976 RMK A01 T01390006  RH  040%=      5-min Rain = 0
KTA1 230642Z 23020KT 14/00 A2976 RMK A01 T01390004  RH  040%=      5-min Rain = 0
KTA1 230643Z 23021G26KT 14/00 A2976 RMK A01 T01380004  RH  040%=      5-min Rain = 0
KTA1 230644Z 23021G26KT 14/00 A2976 RMK A01 T01380004  RH  040%=      5-min Rain = 0
KTA1 230645Z 23021G27KT 14/00 A2976 RMK A01 T01370002  RH  040%=      5-min Rain = 0
KTA1 230646Z 23023KT 14/00 A2976 RMK A01 T01370002  RH  040%=      5-min Rain = 0
KTA1 230647Z 23021KT 14/00 A2976 RMK A01 T01360002  RH  040%=      5-min Rain = 0
KTA1 230648Z 24021KT 14/00 A2976 RMK A01 T01360002  RH  040%=      5-min Rain = 0
KTA1 230649Z 24023G29KT 14/00 A2976 RMK A01 T01350001  RH  040%=      5-min Rain = 0
KTA1 230650Z 24024KT 14/00 A2976 RMK A01 T01350001  RH  040%=      5-min Rain = 0
KTA1 230651Z 24024KT 13/00 A2976 RMK A01 T01340000  RH  040%=      5-min Rain = 0
KTA1 230652Z 24023KT 13/00 A2976 RMK A01 T01340001  RH  040%=      5-min Rain = 0
KTA1 230653Z 25023G29KT 13/00 A2976 RMK A01 T01330002  RH  040%=      5-min Rain = 0
KTA1 230654Z 24019G27KT 13/00 A2976 RMK A01 T01330003  RH  041%=      5-min Rain = 0
KTA1 230655Z 24022G27KT 13/00 A2976 RMK A01 T01320003  RH  041%=      5-min Rain = 0
KTA1 230656Z 25022KT 13/00 A2976 RMK A01 T01320004  RH  041%=      5-min Rain = 0
KTA1 230657Z 25023G28KT 13/01 A2976 RMK A01 T01320006  RH  042%=      5-min Rain = 0
KTA1 230658Z 25024G31KT 13/01 A2976 RMK A01 T01320009  RH  043%=      5-min Rain = 0
KTA1 230659Z 25026KT 13/01 A2976 RMK A01 T01320010  RH  043%=      5-min Rain = 0
KTA1 230700Z 25026G31KT 13/01 A2976 RMK A01 T01320011  RH  044%=      5-min Rain = 0
KTA1 230701Z 25020G25KT 13/01 A2976 RMK A01 T01320011  RH  044%=      5-min Rain = 0
KTA1 230702Z 25023G29KT 13/01 A2977 RMK A01 T01310012  RH  044%=      5-min Rain = 0
KTA1 230703Z 25025G30KT 13/01 A2977 RMK A01 T01310012  RH  044%=      5-min Rain = 0
KTA1 230704Z 25023G28KT 13/01 A2977 RMK A01 T01310013  RH  045%=      5-min Rain = 0
KTA1 230705Z 25024G29KT 13/01 A2977 RMK A01 T01310012  RH  044%=      5-min Rain = 0
KTA1 230706Z 25025KT 13/01 A2978 RMK A01 T01310012  RH  044%=      5-min Rain = 0
KTA1 230707Z 25024G29KT 13/01 A2978 RMK A01 T01310011  RH  044%=      5-min Rain = 0
KTA1 230708Z 25024G31KT 13/01 A2978 RMK A01 T01310013  RH  045%=      5-min Rain = 0
KTA1 230709Z 25024G33KT 13/01 A2978 RMK A01 T01300013  RH  045%=      5-min Rain = 0
KTA1 230710Z 25024KT 13/01 A2978 RMK A01 T01300012  RH  045%=      5-min Rain = 0
KTA1 230711Z 25024KT 13/01 A2978 RMK A01 T01300012  RH  045%=      5-min Rain = 0
KTA1 230712Z 26024G31KT 13/01 A2978 RMK A01 T01300011  RH  044%=      5-min Rain = 0
KTA1 230713Z 26027G32KT 13/01 A2977 RMK A01 T01290010  RH  044%=      5-min Rain = 0
KTA1 230714Z 26028G33KT 13/01 A2977 RMK A01 T01300007  RH  043%=      5-min Rain = 0
KTA1 230715Z 26025G31KT 13/01 A2977 RMK A01 T01300006  RH  043%=      5-min Rain = 0
KTA1 230716Z 26024G31KT 13/01 A2977 RMK A01 T01300005  RH  043%=      5-min Rain = 0
KTA1 230717Z 26025G32KT 13/00 A2978 RMK A01 T01290002  RH  042%=      5-min Rain = 0
KTA1 230718Z 25028G34KT 13/M00 A2978 RMK A01 T01291001  RH  041%=      5-min Rain = 0
KTA1 230719Z 25029KT 13/M00 A2978 RMK A01 T01291003  RH  040%=      5-min Rain = 0
KTA1 230720Z 26024G30KT 13/M00 A2979 RMK A01 T01291004  RH  040%=      5-min Rain = 0
KTA1 230721Z 25020G25KT 13/M00 A2979 RMK A01 T01281004  RH  040%=      5-min Rain = 0
KTA1 230722Z 25027G33KT 13/M00 A2979 RMK A01 T01271004  RH  040%=      5-min Rain = 0
KTA1 230723Z 26022G30KT 13/M01 A2979 RMK A01 T01271005  RH  040%=      5-min Rain = 0
KTA1 230724Z 26023G30KT 13/M01 A298 RMK A01 T01271005  RH  040%=      5-min Rain = 0
KTA1 230725Z 26023G30KT 13/M01 A298 RMK A01 T01261005  RH  040%=      5-min Rain = 0
KTA1 230726Z 25028G40KT 13/M00 A2979 RMK A01 T01261004  RH  040%=      5-min Rain = 0
KTA1 230727Z 25030G39KT 13/M01 A298 RMK A01 T01261005  RH  040%=      5-min Rain = 0
KTA1 230728Z 26027G33KT 13/M01 A298 RMK A01 T01261006  RH  040%=      5-min Rain = 0
KTA1 230729Z 26025G30KT 13/M01 A298 RMK A01 T01261006  RH  040%=      5-min Rain = 0
KTA1 230730Z 26026KT 13/M01 A298 RMK A01 T01251006  RH  040%=      5-min Rain = 0
KTA1 230731Z 26022G27KT 13/M01 A298 RMK A01 T01251005  RH  041%=      5-min Rain = 0
KTA1 230732Z 26021G26KT 12/M01 A298 RMK A01 T01241006  RH  041%=      5-min Rain = 0
KTA1 230733Z 26024G33KT 12/M01 A298 RMK A01 T01241007  RH  041%=      5-min Rain = 0
KTA1 230734Z 26024KT 12/M01 A298 RMK A01 T01231007  RH  041%=      5-min Rain = 0
KTA1 230735Z 26023G29KT 12/M01 A298 RMK A01 T01231008  RH  041%=      5-min Rain = 0
KTA1 230736Z 26023G28KT 12/M01 A2981 RMK A01 T01221008  RH  041%=      5-min Rain = 0
KTA1 230737Z 26023KT 12/M01 A2981 RMK A01 T01221009  RH  041%=      5-min Rain = 0
KTA1 230738Z 26024KT 12/M01 A298 RMK A01 T01211009  RH  040%=      5-min Rain = 0
KTA1 230739Z 26022KT 12/M01 A2981 RMK A01 T01211009  RH  041%=      5-min Rain = 0
KTA1 230740Z 26017G23KT 12/M01 A2981 RMK A01 T01211009  RH  041%=      5-min Rain = 0
KTA1 230741Z 26023G30KT 12/M01 A2981 RMK A01 T01201008  RH  041%=      5-min Rain = 0
KTA1 230742Z 26021G26KT 12/M01 A2981 RMK A01 T01191009  RH  041%=      5-min Rain = 0
KTA1 230743Z 26020G25KT 12/M01 A2981 RMK A01 T01191009  RH  041%=      5-min Rain = 0
KTA1 230744Z 25016G21KT 12/M01 A2981 RMK A01 T01181008  RH  042%=      5-min Rain = 0
KTA1 230745Z 25014G21KT 12/M01 A2981 RMK A01 T01181007  RH  042%=      5-min Rain = 0
KTA1 230746Z 25022G27KT 12/M01 A2981 RMK A01 T01171009  RH  042%=      5-min Rain = 0
KTA1 230747Z 25022KT 12/M01 A2981 RMK A01 T01161011  RH  041%=      5-min Rain = 0
KTA1 230748Z 25019G26KT 12/M01 A2982 RMK A01 T01161012  RH  041%=      5-min Rain = 0
KTA1 230749Z 25026KT 12/M01 A2981 RMK A01 T01151013  RH  041%=      5-min Rain = 0
KTA1 230750Z 25023G28KT 11/M01 A2981 RMK A01 T01141014  RH  041%=      5-min Rain = 0
KTA1 230751Z 25023G33KT 11/M02 A2981 RMK A01 T01131015  RH  041%=      5-min Rain = 0
KTA1 230752Z 25027G32KT 11/M02 A2981 RMK A01 T01121015  RH  041%=      5-min Rain = 0
KTA1 230753Z 25025G33KT 11/M02 A2982 RMK A01 T01111016  RH  041%=      5-min Rain = 0
KTA1 230754Z 25025KT 11/M02 A2982 RMK A01 T01101016  RH  042%=      5-min Rain = 0
KTA1 230755Z 25023G29KT 11/M02 A2982 RMK A01 T01091016  RH  042%=      5-min Rain = 0
KTA1 230756Z 25023G28KT 11/M02 A2982 RMK A01 T01091016  RH  042%=      5-min Rain = 0
KTA1 230757Z 25026G31KT 11/M02 A2982 RMK A01 T01081016  RH  042%=      5-min Rain = 0
KTA1 230758Z 25024KT 11/M02 A2982 RMK A01 T01081016  RH  042%=      5-min Rain = 0
KTA1 230759Z 25025G31KT 11/M02 A2982 RMK A01 T01081016  RH  042%=      5-min Rain = 0
KTA1 230800Z 26022KT 11/M02 A2982 RMK A01 T01071016  RH  042%=      5-min Rain = 0
KTA1 230801Z 26021G27KT 11/M02 A2982 RMK A01 T01071016  RH  042%=      5-min Rain = 0
KTA1 230802Z 25024KT 11/M02 A2982 RMK A01 T01061016  RH  043%=      5-min Rain = 0
KTA1 230803Z 26020KT 11/M02 A2983 RMK A01 T01051016  RH  043%=      5-min Rain = 0
KTA1 230804Z 25024G29KT 10/M02 A2982 RMK A01 T01041016  RH  043%=      5-min Rain = 0
KTA1 230805Z 26024G30KT 10/M02 A2982 RMK A01 T01041016  RH  043%=      5-min Rain = 0
KTA1 230806Z 26022KT 10/M02 A2982 RMK A01 T01031016  RH  043%=      5-min Rain = 0
KTA1 230807Z 26018KT 10/M02 A2982 RMK A01 T01031017  RH  043%=      5-min Rain = 0
KTA1 230808Z 25023G31KT 10/M02 A2982 RMK A01 T01021017  RH  044%=      5-min Rain = 0
KTA1 230809Z 26024KT 10/M02 A2982 RMK A01 T01021017  RH  044%=      5-min Rain = 0
KTA1 230810Z 26023KT 10/M02 A2982 RMK A01 T01011017  RH  044%=      5-min Rain = 0
KTA1 230811Z 26023G28KT 10/M02 A2982 RMK A01 T01011017  RH  044%=      5-min Rain = 0
KTA1 230812Z 26018KT 10/M02 A2982 RMK A01 T01011017  RH  044%=      5-min Rain = 0
KTA1 230813Z 25018KT 10/M02 A2982 RMK A01 T01001017  RH  044%=      5-min Rain = 0
KTA1 230814Z 26020KT 10/M02 A2983 RMK A01 T00991017  RH  044%=      5-min Rain = 0
KTA1 230815Z 26019KT 10/M02 A2983 RMK A01 T00991017  RH  044%=      5-min Rain = 0
KTA1 230816Z 25020G25KT 10/M02 A2983 RMK A01 T00991017  RH  044%=      5-min Rain = 0
KTA1 230817Z 25020G25KT 10/M02 A2983 RMK A01 T00991017  RH  044%=      5-min Rain = 0
KTA1 230818Z 25022KT 10/M02 A2983 RMK A01 T00991017  RH  044%=      5-min Rain = 0
KTA1 230819Z 25020KT 10/M02 A2984 RMK A01 T00991017  RH  044%=      5-min Rain = 0
KTA1 230820Z 25018KT 10/M02 A2983 RMK A01 T00981017  RH  044%=      5-min Rain = 0
KTA1 230821Z 25019KT 10/M02 A2984 RMK A01 T00981017  RH  045%=      5-min Rain = 0
KTA1 230822Z 25019G25KT 10/M02 A2984 RMK A01 T00981017  RH  045%=      5-min Rain = 0
KTA1 230823Z 25019G24KT 10/M02 A2984 RMK A01 T00971017  RH  045%=      5-min Rain = 0
KTA1 230824Z 25020KT 10/M02 A2984 RMK A01 T00971017  RH  045%=      5-min Rain = 0
KTA1 230825Z 25020KT 10/M02 A2984 RMK A01 T00971017  RH  045%=      5-min Rain = 0
KTA1 230826Z 25019KT 10/M02 A2984 RMK A01 T00971017  RH  045%=      5-min Rain = 0
KTA1 230827Z 25017KT 10/M02 A2984 RMK A01 T00961017  RH  045%=      5-min Rain = 0
KTA1 230828Z 25018KT 10/M02 A2984 RMK A01 T00951017  RH  045%=      5-min Rain = 0
KTA1 230829Z 25017KT 10/M02 A2984 RMK A01 T00951017  RH  046%=      5-min Rain = 0
KTA1 230830Z 25017KT 10/M02 A2984 RMK A01 T00951017  RH  046%=      5-min Rain = 0
KTA1 230831Z 25015G20KT 09/M02 A2984 RMK A01 T00941017  RH  046%=      5-min Rain = 0
KTA1 230832Z 25015G20KT 09/M02 A2984 RMK A01 T00941017  RH  046%=      5-min Rain = 0
KTA1 230833Z 25014KT 09/M02 A2984 RMK A01 T00931017  RH  046%=      5-min Rain = 0
KTA1 230834Z 24013KT 09/M02 A2983 RMK A01 T00931016  RH  046%=      5-min Rain = 0
KTA1 230835Z 24013KT 09/M02 A2983 RMK A01 T00921016  RH  047%=      5-min Rain = 0
KTA1 230836Z 24012KT 09/M02 A2983 RMK A01 T00921016  RH  047%=      5-min Rain = 0
KTA1 230837Z 24011KT 09/M02 A2983 RMK A01 T00911017  RH  047%=      5-min Rain = 0
KTA1 230838Z 24011KT 09/M02 A2983 RMK A01 T00901017  RH  047%=      5-min Rain = 0
KTA1 230839Z 24011KT 09/M02 A2983 RMK A01 T00891018  RH  047%=      5-min Rain = 0
KTA1 230840Z 24011KT 09/M02 A2983 RMK A01 T00891018  RH  047%=      5-min Rain = 0
KTA1 230841Z 24012KT 09/M02 A2983 RMK A01 T00891019  RH  047%=      5-min Rain = 0
KTA1 230842Z 24012KT 09/M02 A2983 RMK A01 T00891020  RH  046%=      5-min Rain = 0
KTA1 230843Z 24013KT 09/M02 A2983 RMK A01 T00891021  RH  046%=      5-min Rain = 0
KTA1 230844Z 24012KT 09/M02 A2983 RMK A01 T00881022  RH  046%=      5-min Rain = 0
KTA1 230845Z 24014KT 09/M02 A2983 RMK A01 T00881023  RH  046%=      5-min Rain = 0
KTA1 230846Z 24015KT 09/M02 A2984 RMK A01 T00881024  RH  045%=      5-min Rain = 0
KTA1 230847Z 24013KT 09/M03 A2983 RMK A01 T00881025  RH  045%=      5-min Rain = 0
KTA1 230848Z 23016KT 09/M03 A2984 RMK A01 T00871026  RH  045%=      5-min Rain = 0
KTA1 230849Z 24017KT 09/M03 A2983 RMK A01 T00871027  RH  044%=      5-min Rain = 0
KTA1 230850Z 24019KT 09/M03 A2984 RMK A01 T00881028  RH  044%=      5-min Rain = 0
KTA1 230851Z 24019KT 09/M03 A2984 RMK A01 T00891028  RH  044%=      5-min Rain = 0
KTA1 230852Z 24017KT 09/M03 A2984 RMK A01 T00891029  RH  043%=      5-min Rain = 0
KTA1 230853Z 24016KT 09/M03 A2984 RMK A01 T00891029  RH  043%=      5-min Rain = 0
KTA1 230854Z 24016KT 09/M03 A2984 RMK A01 T00891029  RH  043%=      5-min Rain = 0
KTA1 230855Z 23014KT 09/M03 A2984 RMK A01 T00891028  RH  044%=      5-min Rain = 0
KTA1 230856Z 23014KT 09/M03 A2984 RMK A01 T00881027  RH  044%=      5-min Rain = 0
KTA1 230857Z 23016KT 09/M03 A2984 RMK A01 T00881026  RH  045%=      5-min Rain = 0
KTA1 230858Z 23013KT 09/M03 A2984 RMK A01 T00871025  RH  045%=      5-min Rain = 0
KTA1 230859Z 23018KT 09/M03 A2984 RMK A01 T00871025  RH  045%=      5-min Rain = 0
KTA1 230900Z 23016G22KT 09/M03 A2984 RMK A01 T00871025  RH  045%=      5-min Rain = 0
KTA1 230901Z 23020KT 09/M03 A2984 RMK A01 T00871025  RH  045%=      5-min Rain = 0
KTA1 230902Z 23017KT 09/M03 A2984 RMK A01 T00871026  RH  045%=      5-min Rain = 0
KTA1 230903Z 23016G23KT 09/M03 A2984 RMK A01 T00871025  RH  045%=      5-min Rain = 0
KTA1 230904Z 23017G22KT 09/M03 A2984 RMK A01 T00861026  RH  045%=      5-min Rain = 0
KTA1 230905Z 23020KT 09/M03 A2984 RMK A01 T00861026  RH  045%=      5-min Rain = 0
KTA1 230906Z 23020KT 09/M03 A2984 RMK A01 T00851026  RH  045%=      5-min Rain = 0
KTA1 230907Z 23021G26KT 09/M03 A2984 RMK A01 T00851026  RH  046%=      5-min Rain = 0
KTA1 230908Z 23021KT 09/M03 A2984 RMK A01 T00851026  RH  046%=      5-min Rain = 0
KTA1 230909Z 23018G24KT 08/M03 A2984 RMK A01 T00841026  RH  046%=      5-min Rain = 0
KTA1 230910Z 23022KT 08/M03 A2984 RMK A01 T00841025  RH  046%=      5-min Rain = 0
KTA1 230911Z 23019KT 08/M03 A2984 RMK A01 T00831025  RH  046%=      5-min Rain = 0
KTA1 230912Z 23019G24KT 08/M03 A2984 RMK A01 T00831025  RH  046%=      5-min Rain = 0
KTA1 230913Z 23020KT 08/M03 A2984 RMK A01 T00831025  RH  046%=      5-min Rain = 0
KTA1 230914Z 23019KT 08/M03 A2984 RMK A01 T00831025  RH  047%=      5-min Rain = 0
KTA1 230915Z 23021KT 08/M03 A2984 RMK A01 T00821025  RH  047%=      5-min Rain = 0
KTA1 230916Z 23020G25KT 08/M03 A2984 RMK A01 T00821026  RH  046%=      5-min Rain = 0
KTA1 230917Z 23020KT 08/M03 A2984 RMK A01 T00821026  RH  046%=      5-min Rain = 0
KTA1 230918Z 23019G24KT 08/M03 A2984 RMK A01 T00821026  RH  046%=      5-min Rain = 0
KTA1 230919Z 23021KT 08/M03 A2984 RMK A01 T00821026  RH  047%=      5-min Rain = 0
KTA1 230920Z 22018KT 08/M03 A2984 RMK A01 T00821026  RH  047%=      5-min Rain = 0
KTA1 230921Z 22020KT 08/M03 A2984 RMK A01 T00821025  RH  047%=      5-min Rain = 0
KTA1 230922Z 23019KT 08/M03 A2984 RMK A01 T00821025  RH  047%=      5-min Rain = 0
KTA1 230923Z 22018G23KT 08/M03 A2984 RMK A01 T00821025  RH  047%=      5-min Rain = 0
KTA1 230924Z 22019KT 08/M03 A2984 RMK A01 T00811025  RH  047%=      5-min Rain = 0
KTA1 230925Z 22020KT 08/M03 A2984 RMK A01 T00811025  RH  047%=      5-min Rain = 0
KTA1 230926Z 22016G23KT 08/M03 A2984 RMK A01 T00811025  RH  047%=      5-min Rain = 0
KTA1 230927Z 22017KT 08/M03 A2984 RMK A01 T00811025  RH  047%=      5-min Rain = 0
KTA1 230928Z 22017KT 08/M03 A2984 RMK A01 T00811025  RH  047%=      5-min Rain = 0
KTA1 230929Z 22019KT 08/M03 A2984 RMK A01 T00801026  RH  047%=      5-min Rain = 0
KTA1 230930Z 23017KT 08/M03 A2984 RMK A01 T00801026  RH  047%=      5-min Rain = 0
KTA1 230931Z 23019KT 08/M03 A2984 RMK A01 T00801027  RH  047%=      5-min Rain = 0
KTA1 230932Z 23016G22KT 08/M03 A2984 RMK A01 T00791027  RH  047%=      5-min Rain = 0
KTA1 230933Z 23019KT 08/M03 A2984 RMK A01 T00791027  RH  047%=      5-min Rain = 0
KTA1 230934Z 23018G23KT 08/M03 A2984 RMK A01 T00791027  RH  047%=      5-min Rain = 0
KTA1 230935Z 23020KT 08/M03 A2983 RMK A01 T00791028  RH  047%=      5-min Rain = 0
KTA1 230936Z 23022KT 08/M03 A2983 RMK A01 T00791028  RH  047%=      5-min Rain = 0
KTA1 230937Z 23021G26KT 08/M03 A2983 RMK A01 T00791029  RH  046%=      5-min Rain = 0
KTA1 230938Z 23021G26KT 08/M03 A2983 RMK A01 T00801028  RH  046%=      5-min Rain = 0
KTA1 230939Z 24023KT 08/M03 A2983 RMK A01 T00801028  RH  046%=      5-min Rain = 0
KTA1 230940Z 24022KT 08/M03 A2983 RMK A01 T00801028  RH  047%=      5-min Rain = 0
KTA1 230941Z 24020KT 08/M03 A2983 RMK A01 T00791027  RH  047%=      5-min Rain = 0
KTA1 230942Z 24020KT 08/M03 A2984 RMK A01 T00791027  RH  047%=      5-min Rain = 0
KTA1 230943Z 24020KT 08/M03 A2983 RMK A01 T00781027  RH  047%=      5-min Rain = 0
KTA1 230944Z 23018G24KT 08/M03 A2984 RMK A01 T00781027  RH  047%=      5-min Rain = 0
KTA1 230945Z 23021G26KT 08/M03 A2984 RMK A01 T00771029  RH  047%=      5-min Rain = 0
KTA1 230946Z 23021G26KT 08/M03 A2983 RMK A01 T00781033  RH  045%=      5-min Rain = 0
KTA1 230947Z 23021KT 08/M03 A2984 RMK A01 T00791032  RH  045%=      5-min Rain = 0
KTA1 230948Z 23019G24KT 08/M03 A2984 RMK A01 T00781032  RH  045%=      5-min Rain = 0
KTA1 230949Z 23019KT 08/M03 A2984 RMK A01 T00771031  RH  046%=      5-min Rain = 0
KTA1 230950Z 23016KT 08/M03 A2984 RMK A01 T00761030  RH  047%=      5-min Rain = 0
KTA1 230951Z 23021G26KT 08/M03 A2984 RMK A01 T00751030  RH  047%=      5-min Rain = 0
KTA1 230952Z 23024KT 08/M03 A2984 RMK A01 T00751030  RH  047%=      5-min Rain = 0
KTA1 230953Z 23022KT 08/M03 A2984 RMK A01 T00751031  RH  047%=      5-min Rain = 0
KTA1 230954Z 23022KT 07/M03 A2984 RMK A01 T00741031  RH  047%=      5-min Rain = 0
KTA1 230955Z 24020KT 07/M03 A2984 RMK A01 T00741031  RH  047%=      5-min Rain = 0
KTA1 230956Z 23022KT 07/M03 A2984 RMK A01 T00731031  RH  048%=      5-min Rain = 0
KTA1 230957Z 23023KT 07/M03 A2984 RMK A01 T00721032  RH  047%=      5-min Rain = 0
KTA1 230958Z 23024G29KT 07/M03 A2985 RMK A01 T00721033  RH  047%=      5-min Rain = 0
KTA1 230959Z 24024KT 07/M03 A2985 RMK A01 T00731033  RH  047%=      5-min Rain = 0
KTA1 231000Z 24023G30KT 07/M03 A2985 RMK A01 T00731034  RH  047%=      5-min Rain = 0
KTA1 231001Z 24029G34KT 07/M04 A2985 RMK A01 T00731035  RH  046%=      5-min Rain = 0
KTA1 231002Z 23024G29KT 07/M04 A2985 RMK A01 T00741037  RH  045%=      5-min Rain = 0
KTA1 231003Z 23025KT 07/M04 A2985 RMK A01 T00741036  RH  045%=      5-min Rain = 0
KTA1 231004Z 23022G30KT 07/M04 A2986 RMK A01 T00731036  RH  046%=      5-min Rain = 0
KTA1 231005Z 23024G29KT 07/M04 A2986 RMK A01 T00731036  RH  046%=      5-min Rain = 0
KTA1 231006Z 24024G31KT 07/M04 A2986 RMK A01 T00731036  RH  046%=      5-min Rain = 0
KTA1 231007Z 24027KT 07/M04 A2986 RMK A01 T00721037  RH  046%=      5-min Rain = 0
KTA1 231008Z 24024G30KT 07/M04 A2986 RMK A01 T00721037  RH  046%=      5-min Rain = 0
KTA1 231009Z 23023G32KT 07/M04 A2986 RMK A01 T00711038  RH  046%=      5-min Rain = 0
KTA1 231010Z 23029G36KT 07/M04 A2986 RMK A01 T00701038  RH  046%=      5-min Rain = 0
KTA1 231011Z 23028KT 07/M04 A2986 RMK A01 T00691039  RH  046%=      5-min Rain = 0
KTA1 231012Z 24026G32KT 07/M04 A2986 RMK A01 T00691039  RH  046%=      5-min Rain = 0
KTA1 231013Z 24028G33KT 07/M04 A2986 RMK A01 T00681038  RH  047%=      5-min Rain = 0
KTA1 231014Z 24026G33KT 07/M04 A2986 RMK A01 T00671038  RH  047%=      5-min Rain = 0
KTA1 231015Z 24026KT 07/M04 A2986 RMK A01 T00661038  RH  047%=      5-min Rain = 0
KTA1 231016Z 24030KT 07/M04 A2986 RMK A01 T00661037  RH  048%=      5-min Rain = 0
KTA1 231017Z 24026G31KT 07/M04 A2986 RMK A01 T00651037  RH  048%=      5-min Rain = 0
KTA1 231018Z 24023G31KT 07/M04 A2986 RMK A01 T00651037  RH  048%=      5-min Rain = 0
KTA1 231019Z 24025G30KT 06/M04 A2986 RMK A01 T00641037  RH  048%=      5-min Rain = 0
KTA1 231020Z 24022G28KT 06/M04 A2986 RMK A01 T00641036  RH  049%=      5-min Rain = 0
KTA1 231021Z 24024G29KT 06/M04 A2986 RMK A01 T00621037  RH  049%=      5-min Rain = 0
KTA1 231022Z 24025KT 06/M04 A2987 RMK A01 T00621036  RH  049%=      5-min Rain = 0
KTA1 231023Z 24025KT 06/M04 A2987 RMK A01 T00621036  RH  049%=      5-min Rain = 0
KTA1 231024Z 24019G24KT 06/M04 A2987 RMK A01 T00621037  RH  049%=      5-min Rain = 0
KTA1 231025Z 24022G32KT 06/M04 A2987 RMK A01 T00611037  RH  050%=      5-min Rain = 0
KTA1 231026Z 24026G32KT 06/M04 A2987 RMK A01 T00601037  RH  050%=      5-min Rain = 0
KTA1 231027Z 24027KT 06/M04 A2987 RMK A01 T00611037  RH  049%=      5-min Rain = 0
KTA1 231028Z 24023KT 06/M04 A2987 RMK A01 T00611037  RH  049%=      5-min Rain = 0
KTA1 231029Z 24025G30KT 06/M04 A2987 RMK A01 T00611037  RH  049%=      5-min Rain = 0
KTA1 231030Z 24023KT 06/M04 A2987 RMK A01 T00611038  RH  049%=      5-min Rain = 0
KTA1 231031Z 24025G32KT 06/M04 A2987 RMK A01 T00611037  RH  049%=      5-min Rain = 0
KTA1 231032Z 24024G30KT 06/M04 A2987 RMK A01 T00611037  RH  050%=      5-min Rain = 0
KTA1 231033Z 25025G30KT 06/M04 A2987 RMK A01 T00601037  RH  050%=      5-min Rain = 0
KTA1 231034Z 24023G29KT 06/M04 A2988 RMK A01 T00601037  RH  050%=      5-min Rain = 0
KTA1 231035Z 25022KT 06/M04 A2988 RMK A01 T00601037  RH  050%=      5-min Rain = 0
KTA1 231036Z 25022G27KT 06/M04 A2988 RMK A01 T00591037  RH  050%=      5-min Rain = 0
KTA1 231037Z 25022G30KT 06/M04 A2988 RMK A01 T00591037  RH  050%=      5-min Rain = 0
KTA1 231038Z 25023G29KT 06/M04 A2987 RMK A01 T00591037  RH  050%=      5-min Rain = 0
KTA1 231039Z 25024KT 06/M04 A2988 RMK A01 T00591037  RH  050%=      5-min Rain = 0
KTA1 231040Z 25025KT 06/M04 A2987 RMK A01 T00591037  RH  050%=      5-min Rain = 0
KTA1 231041Z 25022G28KT 06/M04 A2987 RMK A01 T00591037  RH  050%=      5-min Rain = 0
KTA1 231042Z 25021G29KT 06/M04 A2988 RMK A01 T00581037  RH  050%=      5-min Rain = 0
KTA1 231043Z 25027KT 06/M04 A2987 RMK A01 T00581038  RH  050%=      5-min Rain = 0
KTA1 231044Z 25021G26KT 06/M04 A2987 RMK A01 T00581038  RH  050%=      5-min Rain = 0
KTA1 231045Z 25020KT 06/M04 A2988 RMK A01 T00581038  RH  050%=      5-min Rain = 0
KTA1 231046Z 25023KT 06/M04 A2987 RMK A01 T00571038  RH  050%=      5-min Rain = 0
KTA1 231047Z 25021KT 06/M04 A2987 RMK A01 T00571038  RH  050%=      5-min Rain = 0
KTA1 231048Z 25019G25KT 06/M04 A2988 RMK A01 T00571038  RH  051%=      5-min Rain = 0
KTA1 231049Z 25023G28KT 06/M04 A2987 RMK A01 T00561038  RH  051%=      5-min Rain = 0
KTA1 231050Z 25021G26KT 06/M04 A2987 RMK A01 T00561038  RH  051%=      5-min Rain = 0
KTA1 231051Z 25018KT 06/M04 A2987 RMK A01 T00561038  RH  051%=      5-min Rain = 0
KTA1 231052Z 25021G27KT 06/M04 A2987 RMK A01 T00561038  RH  051%=      5-min Rain = 0
KTA1 231053Z 25019KT 06/M04 A2987 RMK A01 T00561038  RH  051%=      5-min Rain = 0
KTA1 231054Z 25019G24KT 06/M04 A2987 RMK A01 T00551038  RH  051%=      5-min Rain = 0
KTA1 231055Z 25020KT 06/M04 A2987 RMK A01 T00551038  RH  051%=      5-min Rain = 0
KTA1 231056Z 25020KT 06/M04 A2987 RMK A01 T00551038  RH  051%=      5-min Rain = 0
KTA1 231057Z 25019KT 06/M04 A2987 RMK A01 T00551039  RH  051%=      5-min Rain = 0
KTA1 231058Z 25020G26KT 06/M04 A2987 RMK A01 T00551039  RH  051%=      5-min Rain = 0
KTA1 231059Z 25019KT 05/M04 A2987 RMK A01 T00541039  RH  051%=      5-min Rain = 0
KTA1 231100Z 24017KT 05/M04 A2988 RMK A01 T00541039  RH  051%=      5-min Rain = 0
KTA1 231101Z 24020KT 05/M04 A2987 RMK A01 T00531039  RH  051%=      5-min Rain = 0
KTA1 231102Z 24016KT 05/M04 A2987 RMK A01 T00531039  RH  052%=      5-min Rain = 0
KTA1 231103Z 24018G24KT 05/M04 A2987 RMK A01 T00521039  RH  052%=      5-min Rain = 0
KTA1 231104Z 25017KT 05/M04 A2988 RMK A01 T00521039  RH  052%=      5-min Rain = 0
KTA1 231105Z 25018KT 05/M04 A2988 RMK A01 T00511040  RH  052%=      5-min Rain = 0
KTA1 231106Z 25016KT 05/M04 A2988 RMK A01 T00511039  RH  052%=      5-min Rain = 0
KTA1 231107Z 25017G22KT 05/M04 A2988 RMK A01 T00511040  RH  052%=      5-min Rain = 0
KTA1 231108Z 25018KT 05/M04 A2987 RMK A01 T00501040  RH  052%=      5-min Rain = 0
KTA1 231109Z 24015G20KT 05/M04 A2988 RMK A01 T00511040  RH  052%=      5-min Rain = 0
KTA1 231110Z 24019KT 05/M04 A2987 RMK A01 T00501040  RH  052%=      5-min Rain = 0
KTA1 231111Z 24017G23KT 05/M04 A2988 RMK A01 T00501040  RH  052%=      5-min Rain = 0
KTA1 231112Z 24018KT 05/M04 A2988 RMK A01 T00501041  RH  052%=      5-min Rain = 0
KTA1 231113Z 24016KT 05/M04 A2988 RMK A01 T00501041  RH  052%=      5-min Rain = 0
KTA1 231114Z 25016KT 05/M04 A2988 RMK A01 T00491041  RH  052%=      5-min Rain = 0
KTA1 231115Z 25017KT 05/M04 A2988 RMK A01 T00491041  RH  052%=      5-min Rain = 0
KTA1 231116Z 25017KT 05/M04 A2988 RMK A01 T00491042  RH  052%=      5-min Rain = 0
KTA1 231117Z 24019KT 05/M04 A2988 RMK A01 T00491042  RH  052%=      5-min Rain = 0
KTA1 231118Z 24016KT 05/M04 A2988 RMK A01 T00491042  RH  052%=      5-min Rain = 0
KTA1 231119Z 24016KT 05/M04 A2988 RMK A01 T00491043  RH  052%=      5-min Rain = 0
KTA1 231120Z 24016KT 05/M04 A2988 RMK A01 T00491042  RH  052%=      5-min Rain = 0
KTA1 231121Z 24017KT 05/M04 A2988 RMK A01 T00481043  RH  052%=      5-min Rain = 0
KTA1 231122Z 24018KT 05/M04 A2988 RMK A01 T00481043  RH  052%=      5-min Rain = 0
KTA1 231123Z 24016KT 05/M04 A2988 RMK A01 T00481044  RH  052%=      5-min Rain = 0
KTA1 231124Z 24018G23KT 05/M04 A2988 RMK A01 T00481043  RH  052%=      5-min Rain = 0
KTA1 231125Z 24018KT 05/M04 A2988 RMK A01 T00481044  RH  052%=      5-min Rain = 0
KTA1 231126Z 24017KT 05/M04 A2988 RMK A01 T00471044  RH  052%=      5-min Rain = 0
KTA1 231127Z 24020G26KT 05/M04 A2988 RMK A01 T00471044  RH  052%=      5-min Rain = 0
KTA1 231128Z 24019KT 05/M05 A2988 RMK A01 T00471045  RH  051%=      5-min Rain = 0
KTA1 231129Z 24018KT 05/M04 A2988 RMK A01 T00471044  RH  051%=      5-min Rain = 0
KTA1 231130Z 24018KT 05/M04 A2988 RMK A01 T00471044  RH  051%=      5-min Rain = 0
KTA1 231131Z 24019KT 05/M04 A2988 RMK A01 T00471044  RH  052%=      5-min Rain = 0
KTA1 231132Z 23020KT 05/M04 A2988 RMK A01 T00471044  RH  052%=      5-min Rain = 0
KTA1 231133Z 24018KT 05/M04 A2988 RMK A01 T00471044  RH  052%=      5-min Rain = 0
KTA1 231134Z 23018G23KT 05/M04 A2988 RMK A01 T00471044  RH  052%=      5-min Rain = 0
KTA1 231135Z 24018KT 05/M04 A2988 RMK A01 T00461043  RH  052%=      5-min Rain = 0
KTA1 231136Z 24021KT 05/M04 A2988 RMK A01 T00471043  RH  052%=      5-min Rain = 0
KTA1 231137Z 23018KT 05/M04 A2988 RMK A01 T00461043  RH  052%=      5-min Rain = 0
KTA1 231138Z 23017G23KT 05/M04 A2988 RMK A01 T00461043  RH  052%=      5-min Rain = 0
KTA1 231139Z 23017KT 05/M04 A2988 RMK A01 T00461043  RH  052%=      5-min Rain = 0
KTA1 231140Z 23020KT 05/M04 A2988 RMK A01 T00451043  RH  053%=      5-min Rain = 0
KTA1 231141Z 23020KT 05/M04 A2988 RMK A01 T00461043  RH  053%=      5-min Rain = 0
KTA1 231142Z 23018KT 05/M04 A2988 RMK A01 T00461043  RH  052%=      5-min Rain = 0
KTA1 231143Z 23019KT 05/M04 A2989 RMK A01 T00461043  RH  053%=      5-min Rain = 0
KTA1 231144Z 23019G25KT 05/M04 A2989 RMK A01 T00461043  RH  053%=      5-min Rain = 0
KTA1 231145Z 24020KT 05/M04 A2989 RMK A01 T00451043  RH  053%=      5-min Rain = 0
KTA1 231146Z 24021KT 05/M04 A2988 RMK A01 T00451043  RH  053%=      5-min Rain = 0
KTA1 231147Z 23021KT 05/M04 A2989 RMK A01 T00451043  RH  053%=      5-min Rain = 0
KTA1 231148Z 24019KT 05/M04 A2989 RMK A01 T00461043  RH  053%=      5-min Rain = 0
KTA1 231149Z 24019KT 05/M04 A2989 RMK A01 T00451043  RH  053%=      5-min Rain = 0
KTA1 231150Z 24019KT 05/M04 A2989 RMK A01 T00451043  RH  053%=      5-min Rain = 0
KTA1 231151Z 24016KT 05/M04 A2989 RMK A01 T00451043  RH  053%=      5-min Rain = 0
KTA1 231152Z 24020KT 04/M04 A2989 RMK A01 T00441043  RH  053%=      5-min Rain = 0
KTA1 231153Z 24020G26KT 04/M04 A2989 RMK A01 T00441043  RH  053%=      5-min Rain = 0
KTA1 231154Z 24019KT 04/M04 A2989 RMK A01 T00441044  RH  053%=      5-min Rain = 0
KTA1 231155Z 24019KT 04/M04 A2989 RMK A01 T00441043  RH  053%=      5-min Rain = 0
KTA1 231156Z 24021KT 04/M04 A2989 RMK A01 T00441043  RH  053%=      5-min Rain = 0
KTA1 231157Z 24020KT 04/M04 A2989 RMK A01 T00441043  RH  053%=      5-min Rain = 0
KTA1 231158Z 24022KT 04/M04 A2989 RMK A01 T00441043  RH  053%=      5-min Rain = 0
KTA1 231159Z 24020KT 04/M04 A2989 RMK A01 T00441043  RH  053%=      5-min Rain = 0
KTA1 231200Z 24021KT 04/M04 A2989 RMK A01 T00441043  RH  053%=      5-min Rain = 0
KTA1 231201Z 24021G27KT 04/M04 A2989 RMK A01 T00441043  RH  053%=      5-min Rain = 0
KTA1 231202Z 24021KT 04/M04 A2989 RMK A01 T00441043  RH  053%=      5-min Rain = 0
KTA1 231203Z 24021KT 04/M04 A2989 RMK A01 T00441043  RH  053%=      5-min Rain = 0
KTA1 231204Z 24019G24KT 04/M04 A2989 RMK A01 T00431043  RH  053%=      5-min Rain = 0
KTA1 231205Z 24020G26KT 04/M04 A2988 RMK A01 T00431043  RH  053%=      5-min Rain = 0
KTA1 231206Z 24022KT 04/M04 A2988 RMK A01 T00431043  RH  054%=      5-min Rain = 0
KTA1 231207Z 24021KT 04/M04 A2988 RMK A01 T00431043  RH  053%=      5-min Rain = 0
KTA1 231208Z 24022G27KT 04/M04 A2988 RMK A01 T00431044  RH  053%=      5-min Rain = 0
KTA1 231209Z 25020KT 04/M04 A2988 RMK A01 T00431044  RH  053%=      5-min Rain = 0
KTA1 231210Z 25018G23KT 04/M04 A2989 RMK A01 T00431044  RH  053%=      5-min Rain = 0
KTA1 231211Z 24024KT 04/M04 A2988 RMK A01 T00421044  RH  053%=      5-min Rain = 0
KTA1 231212Z 24021G27KT 04/M04 A2989 RMK A01 T00431044  RH  053%=      5-min Rain = 0
KTA1 231213Z 25023KT 04/M04 A2988 RMK A01 T00431044  RH  053%=      5-min Rain = 0
KTA1 231214Z 24021KT 04/M04 A2988 RMK A01 T00431044  RH  053%=      5-min Rain = 0
KTA1 231215Z 24023KT 04/M04 A2988 RMK A01 T00431044  RH  053%=      5-min Rain = 0
KTA1 231216Z 24021G26KT 04/M04 A2988 RMK A01 T00431044  RH  053%=      5-min Rain = 0
KTA1 231217Z 25021G26KT 04/M04 A2988 RMK A01 T00431044  RH  053%=      5-min Rain = 0
KTA1 231218Z 24021KT 04/M04 A2988 RMK A01 T00431044  RH  053%=      5-min Rain = 0
KTA1 231219Z 25020G27KT 04/M04 A2988 RMK A01 T00421044  RH  053%=      5-min Rain = 0
KTA1 231220Z 25020KT 04/M04 A2988 RMK A01 T00421044  RH  054%=      5-min Rain = 0
KTA1 231221Z 25020KT 04/M04 A2988 RMK A01 T00411044  RH  054%=      5-min Rain = 0
KTA1 231222Z 25019KT 04/M04 A2988 RMK A01 T00411044  RH  054%=      5-min Rain = 0
KTA1 231223Z 25020KT 04/M04 A2988 RMK A01 T00411044  RH  054%=      5-min Rain = 0
KTA1 231224Z 24020G26KT 04/M04 A2988 RMK A01 T00411044  RH  054%=      5-min Rain = 0
KTA1 231225Z 24021KT 04/M04 A2988 RMK A01 T00411044  RH  054%=      5-min Rain = 0
KTA1 231226Z 24020G25KT 04/M04 A2988 RMK A01 T00411044  RH  054%=      5-min Rain = 0
KTA1 231227Z 24020G25KT 04/M04 A2988 RMK A01 T00401044  RH  054%=      5-min Rain = 0
KTA1 231228Z 24021G26KT 04/M04 A2988 RMK A01 T00401044  RH  054%=      5-min Rain = 0
KTA1 231229Z 24019G24KT 04/M04 A2988 RMK A01 T00401044  RH  054%=      5-min Rain = 0
KTA1 231230Z 24021KT 04/M05 A2988 RMK A01 T00401045  RH  054%=      5-min Rain = 0
KTA1 231231Z 24019KT 04/M05 A2988 RMK A01 T00401045  RH  054%=      5-min Rain = 0
KTA1 231232Z 24019KT 04/M04 A2988 RMK A01 T00391044  RH  054%=      5-min Rain = 0
KTA1 231233Z 24021KT 04/M05 A2988 RMK A01 T00391045  RH  054%=      5-min Rain = 0
KTA1 231234Z 24020G25KT 04/M04 A2988 RMK A01 T00391044  RH  054%=      5-min Rain = 0
KTA1 231235Z 24018KT 04/M04 A2988 RMK A01 T00391044  RH  054%=      5-min Rain = 0
KTA1 231236Z 24018G24KT 04/M04 A2988 RMK A01 T00391044  RH  055%=      5-min Rain = 0
KTA1 231237Z 24018G23KT 04/M04 A2988 RMK A01 T00391044  RH  055%=      5-min Rain = 0
KTA1 231238Z 24020KT 04/M04 A2988 RMK A01 T00381044  RH  055%=      5-min Rain = 0
KTA1 231239Z 24021KT 04/M04 A2988 RMK A01 T00381044  RH  055%=      5-min Rain = 0
KTA1 231240Z 24020G28KT 04/M04 A2988 RMK A01 T00381044  RH  055%=      5-min Rain = 0
KTA1 231241Z 24022KT 04/M04 A2988 RMK A01 T00381044  RH  055%=      5-min Rain = 0
KTA1 231242Z 24019KT 04/M04 A2988 RMK A01 T00381044  RH  055%=      5-min Rain = 0
KTA1 231243Z 24019G24KT 04/M04 A2988 RMK A01 T00381044  RH  055%=      5-min Rain = 0
KTA1 231244Z 24020G25KT 04/M04 A2988 RMK A01 T00381044  RH  055%=      5-min Rain = 0
KTA1 231245Z 24020KT 04/M04 A2989 RMK A01 T00381044  RH  055%=      5-min Rain = 0
KTA1 231246Z 24018KT 04/M04 A2989 RMK A01 T00381044  RH  055%=      5-min Rain = 0
KTA1 231247Z 24018G23KT 04/M04 A2989 RMK A01 T00381044  RH  055%=      5-min Rain = 0
KTA1 231248Z 24018G25KT 04/M04 A2989 RMK A01 T00381044  RH  055%=      5-min Rain = 0
KTA1 231249Z 24020KT 04/M04 A2989 RMK A01 T00381044  RH  055%=      5-min Rain = 0
KTA1 231250Z 24019KT 04/M04 A2989 RMK A01 T00381044  RH  055%=      5-min Rain = 0
KTA1 231251Z 24020KT 04/M04 A2989 RMK A01 T00381044  RH  055%=      5-min Rain = 0
KTA1 231252Z 24017G22KT 04/M04 A2989 RMK A01 T00381044  RH  055%=      5-min Rain = 0
KTA1 231253Z 24020KT 04/M04 A2989 RMK A01 T00381044  RH  055%=      5-min Rain = 0
KTA1 231254Z 24020G26KT 04/M04 A2989 RMK A01 T00381044  RH  055%=      5-min Rain = 0
KTA1 231255Z 24018G23KT 04/M04 A2989 RMK A01 T00381044  RH  055%=      5-min Rain = 0
KTA1 231256Z 24018G23KT 04/M04 A2989 RMK A01 T00371044  RH  055%=      5-min Rain = 0
KTA1 231257Z 24020G25KT 04/M04 A2989 RMK A01 T00371044  RH  055%=      5-min Rain = 0
KTA1 231258Z 24016KT 04/M04 A299 RMK A01 T00371044  RH  055%=      5-min Rain = 0
KTA1 231259Z 24018KT 04/M04 A299 RMK A01 T00371044  RH  055%=      5-min Rain = 0
KTA1 231300Z 24017G23KT 04/M04 A299 RMK A01 T00371044  RH  056%=      5-min Rain = 0
KTA1 231301Z 24016G22KT 04/M04 A299 RMK A01 T00371044  RH  056%=      5-min Rain = 0
KTA1 231302Z 24016G21KT 04/M04 A299 RMK A01 T00361044  RH  056%=      5-min Rain = 0
KTA1 231303Z 24018KT 04/M04 A299 RMK A01 T00361044  RH  056%=      5-min Rain = 0
KTA1 231304Z 24018KT 04/M04 A299 RMK A01 T00361044  RH  056%=      5-min Rain = 0
KTA1 231305Z 24016KT 04/M04 A299 RMK A01 T00361044  RH  056%=      5-min Rain = 0
KTA1 231306Z 24017KT 04/M04 A299 RMK A01 T00351044  RH  056%=      5-min Rain = 0
KTA1 231307Z 24018KT 04/M04 A299 RMK A01 T00351044  RH  056%=      5-min Rain = 0
KTA1 231308Z 24017KT 03/M04 A299 RMK A01 T00341044  RH  056%=      5-min Rain = 0
KTA1 231309Z 24016KT 03/M04 A299 RMK A01 T00341044  RH  056%=      5-min Rain = 0
KTA1 231310Z 24016KT 03/M04 A2991 RMK A01 T00341044  RH  057%=      5-min Rain = 0
KTA1 231311Z 23016KT 03/M04 A2991 RMK A01 T00331044  RH  057%=      5-min Rain = 0
KTA1 231312Z 24014KT 03/M04 A299 RMK A01 T00331044  RH  057%=      5-min Rain = 0
KTA1 231313Z 24017KT 03/M04 A299 RMK A01 T00331044  RH  057%=      5-min Rain = 0
KTA1 231314Z 24016KT 03/M05 A299 RMK A01 T00321045  RH  057%=      5-min Rain = 0
KTA1 231315Z 24017KT 03/M05 A299 RMK A01 T00321045  RH  057%=      5-min Rain = 0
KTA1 231316Z 24015G21KT 03/M05 A299 RMK A01 T00321045  RH  057%=      5-min Rain = 0
KTA1 231317Z 23019KT 03/M05 A299 RMK A01 T00321045  RH  057%=      5-min Rain = 0
KTA1 231318Z 24018KT 03/M05 A299 RMK A01 T00331045  RH  057%=      5-min Rain = 0
KTA1 231319Z 24018G25KT 03/M05 A299 RMK A01 T00331045  RH  057%=      5-min Rain = 0
KTA1 231320Z 24020KT 03/M05 A299 RMK A01 T00331045  RH  057%=      5-min Rain = 0
KTA1 231321Z 23019KT 03/M05 A299 RMK A01 T00341045  RH  056%=      5-min Rain = 0
KTA1 231322Z 23018KT 03/M05 A299 RMK A01 T00331045  RH  056%=      5-min Rain = 0
KTA1 231323Z 24017KT 03/M05 A299 RMK A01 T00331045  RH  056%=      5-min Rain = 0
KTA1 231324Z 24017G23KT 03/M05 A299 RMK A01 T00331045  RH  056%=      5-min Rain = 0
KTA1 231325Z 24016KT 03/M05 A299 RMK A01 T00331045  RH  057%=      5-min Rain = 0
KTA1 231326Z 24018G23KT 03/M05 A299 RMK A01 T00321045  RH  057%=      5-min Rain = 0
KTA1 231327Z 24017KT 03/M05 A299 RMK A01 T00321045  RH  057%=      5-min Rain = 0
KTA1 231328Z 24020KT 03/M05 A299 RMK A01 T00331045  RH  057%=      5-min Rain = 0
KTA1 231329Z 24018KT 03/M05 A299 RMK A01 T00341045  RH  057%=      5-min Rain = 0
KTA1 231330Z 24020KT 03/M05 A299 RMK A01 T00341045  RH  056%=      5-min Rain = 0
KTA1 231331Z 24018G25KT 03/M05 A2991 RMK A01 T00341045  RH  056%=      5-min Rain = 0
KTA1 231332Z 25019KT 03/M05 A2991 RMK A01 T00341045  RH  056%=      5-min Rain = 0
KTA1 231333Z 25021KT 03/M05 A2991 RMK A01 T00341045  RH  056%=      5-min Rain = 0
KTA1 231334Z 25018KT 04/M05 A2991 RMK A01 T00351045  RH  056%=      5-min Rain = 0
KTA1 231335Z 25017KT 04/M05 A2991 RMK A01 T00351045  RH  056%=      5-min Rain = 0
KTA1 231336Z 25019G25KT 04/M05 A2991 RMK A01 T00361045  RH  056%=      5-min Rain = 0
KTA1 231337Z 25019KT 04/M05 A2991 RMK A01 T00361045  RH  055%=      5-min Rain = 0
KTA1 231338Z 25019KT 04/M05 A2991 RMK A01 T00361045  RH  055%=      5-min Rain = 0
KTA1 231339Z 25018KT 04/M05 A2991 RMK A01 T00361045  RH  055%=      5-min Rain = 0
KTA1 231340Z 25020KT 04/M05 A2991 RMK A01 T00361046  RH  055%=      5-min Rain = 0
KTA1 231341Z 25017G22KT 04/M05 A2991 RMK A01 T00361045  RH  055%=      5-min Rain = 0
KTA1 231342Z 25019KT 04/M05 A2991 RMK A01 T00361045  RH  055%=      5-min Rain = 0
KTA1 231343Z 25019KT 04/M05 A2991 RMK A01 T00351046  RH  055%=      5-min Rain = 0
KTA1 231344Z 25018G24KT 04/M05 A2991 RMK A01 T00361046  RH  055%=      5-min Rain = 0
KTA1 231345Z 25020G25KT 04/M05 A2991 RMK A01 T00361046  RH  055%=      5-min Rain = 0
KTA1 231346Z 24020KT 04/M05 A299 RMK A01 T00361046  RH  055%=      5-min Rain = 0
KTA1 231347Z 24022KT 04/M05 A299 RMK A01 T00361046  RH  055%=      5-min Rain = 0
KTA1 231348Z 24021G26KT 04/M05 A299 RMK A01 T00361046  RH  055%=      5-min Rain = 0
KTA1 231349Z 24021KT 04/M05 A299 RMK A01 T00361046  RH  055%=      5-min Rain = 0
KTA1 231350Z 24021KT 04/M05 A299 RMK A01 T00361046  RH  055%=      5-min Rain = 0
KTA1 231351Z 24021G27KT 04/M05 A299 RMK A01 T00371046  RH  055%=      5-min Rain = 0
KTA1 231352Z 24020G25KT 04/M05 A299 RMK A01 T00371046  RH  054%=      5-min Rain = 0
KTA1 231353Z 24020KT 04/M05 A299 RMK A01 T00371046  RH  054%=      5-min Rain = 0
KTA1 231354Z 24024KT 04/M05 A299 RMK A01 T00371046  RH  054%=      5-min Rain = 0
KTA1 231355Z 24024G29KT 04/M05 A2989 RMK A01 T00381047  RH  054%=      5-min Rain = 0
KTA1 231356Z 24020G26KT 04/M05 A2989 RMK A01 T00391046  RH  054%=      5-min Rain = 0
KTA1 231357Z 24021G27KT 04/M05 A299 RMK A01 T00391046  RH  054%=      5-min Rain = 0
KTA1 231358Z 24021KT 04/M05 A299 RMK A01 T00391047  RH  054%=      5-min Rain = 0
KTA1 231359Z 24021KT 04/M05 A299 RMK A01 T00391046  RH  054%=      5-min Rain = 0
KTA1 231400Z 23022G28KT 04/M05 A299 RMK A01 T00391047  RH  054%=      5-min Rain = 0
KTA1 231401Z 24022KT 04/M05 A2989 RMK A01 T00391046  RH  054%=      5-min Rain = 0
KTA1 231402Z 24020KT 04/M05 A299 RMK A01 T00391046  RH  054%=      5-min Rain = 0
KTA1 231403Z 24018KT 04/M05 A299 RMK A01 T00391046  RH  054%=      5-min Rain = 0
KTA1 231404Z 24022KT 04/M05 A299 RMK A01 T00391046  RH  054%=      5-min Rain = 0
KTA1 231405Z 24021G29KT 04/M05 A2989 RMK A01 T00391046  RH  054%=      5-min Rain = 0
KTA1 231406Z 24021KT 04/M05 A299 RMK A01 T00401046  RH  053%=      5-min Rain = 0
KTA1 231407Z 24019KT 04/M05 A299 RMK A01 T00401046  RH  053%=      5-min Rain = 0
KTA1 231408Z 24022KT 04/M05 A299 RMK A01 T00411046  RH  053%=      5-min Rain = 0
KTA1 231409Z 24021KT 04/M05 A299 RMK A01 T00411046  RH  053%=      5-min Rain = 0
KTA1 231410Z 24020G25KT 04/M05 A299 RMK A01 T00411046  RH  053%=      5-min Rain = 0
KTA1 231411Z 25019G26KT 04/M05 A299 RMK A01 T00411046  RH  053%=      5-min Rain = 0
KTA1 231412Z 24022KT 04/M05 A299 RMK A01 T00421046  RH  053%=      5-min Rain = 0
KTA1 231413Z 24021KT 04/M05 A299 RMK A01 T00421047  RH  052%=      5-min Rain = 0
KTA1 231414Z 24025KT 04/M05 A299 RMK A01 T00431047  RH  052%=      5-min Rain = 0
KTA1 231415Z 24020KT 04/M05 A299 RMK A01 T00431047  RH  052%=      5-min Rain = 0
KTA1 231416Z 24019KT 04/M05 A299 RMK A01 T00431047  RH  052%=      5-min Rain = 0
KTA1 231417Z 24023KT 04/M05 A299 RMK A01 T00441046  RH  052%=      5-min Rain = 0
KTA1 231418Z 25020KT 04/M05 A299 RMK A01 T00441047  RH  052%=      5-min Rain = 0
KTA1 231419Z 25020G25KT 05/M05 A299 RMK A01 T00451047  RH  051%=      5-min Rain = 0
KTA1 231420Z 25023G29KT 05/M05 A299 RMK A01 T00451047  RH  051%=      5-min Rain = 0
KTA1 231421Z 24018G23KT 05/M05 A2991 RMK A01 T00451048  RH  051%=      5-min Rain = 0
KTA1 231422Z 25020G27KT 05/M05 A2991 RMK A01 T00461047  RH  051%=      5-min Rain = 0
KTA1 231423Z 25022KT 05/M05 A2991 RMK A01 T00471048  RH  050%=      5-min Rain = 0
KTA1 231424Z 25020G25KT 05/M05 A2991 RMK A01 T00471048  RH  050%=      5-min Rain = 0
KTA1 231425Z 25022KT 05/M05 A2991 RMK A01 T00471048  RH  050%=      5-min Rain = 0
KTA1 231426Z 25023KT 05/M05 A2991 RMK A01 T00481049  RH  050%=      5-min Rain = 0
KTA1 231427Z 25023G28KT 05/M05 A2991 RMK A01 T00481050  RH  049%=      5-min Rain = 0
KTA1 231428Z 25021KT 05/M05 A2991 RMK A01 T00481050  RH  049%=      5-min Rain = 0
KTA1 231429Z 24023G28KT 05/M05 A299 RMK A01 T00491050  RH  049%=      5-min Rain = 0
KTA1 231430Z 25023G29KT 05/M05 A299 RMK A01 T00491049  RH  049%=      5-min Rain = 0
KTA1 231431Z 25022KT 05/M05 A299 RMK A01 T00501049  RH  049%=      5-min Rain = 0
KTA1 231432Z 24024G32KT 05/M05 A299 RMK A01 T00501049  RH  049%=      5-min Rain = 0
KTA1 231433Z 24026G32KT 05/M05 A299 RMK A01 T00501050  RH  048%=      5-min Rain = 0
KTA1 231434Z 25023G28KT 05/M05 A299 RMK A01 T00511051  RH  048%=      5-min Rain = 0
KTA1 231435Z 24020G29KT 05/M05 A2991 RMK A01 T00511051  RH  048%=      5-min Rain = 0
KTA1 231436Z 24025G30KT 05/M05 A299 RMK A01 T00521050  RH  048%=      5-min Rain = 0
KTA1 231437Z 24021G26KT 05/M05 A2991 RMK A01 T00521051  RH  047%=      5-min Rain = 0
KTA1 231438Z 24024G29KT 05/M05 A2991 RMK A01 T00521051  RH  047%=      5-min Rain = 0
KTA1 231439Z 24022G29KT 05/M05 A2991 RMK A01 T00531052  RH  047%=      5-min Rain = 0
KTA1 231440Z 24021KT 05/M05 A2991 RMK A01 T00531051  RH  047%=      5-min Rain = 0
KTA1 231441Z 25021KT 05/M05 A2991 RMK A01 T00541051  RH  047%=      5-min Rain = 0
KTA1 231442Z 25017KT 05/M05 A2992 RMK A01 T00541051  RH  047%=      5-min Rain = 0
KTA1 231443Z 25018G24KT 06/M05 A2992 RMK A01 T00551050  RH  047%=      5-min Rain = 0
KTA1 231444Z 24021KT 06/M05 A2992 RMK A01 T00551051  RH  046%=      5-min Rain = 0
KTA1 231445Z 25018G24KT 06/M05 A2992 RMK A01 T00561052  RH  046%=      5-min Rain = 0
KTA1 231446Z 24021G26KT 06/M05 A2991 RMK A01 T00561052  RH  046%=      5-min Rain = 0
KTA1 231447Z 24020G25KT 06/M05 A2991 RMK A01 T00571052  RH  046%=      5-min Rain = 0
KTA1 231448Z 24021G29KT 06/M05 A2991 RMK A01 T00571051  RH  046%=      5-min Rain = 0
KTA1 231449Z 24021KT 06/M05 A2991 RMK A01 T00571053  RH  045%=      5-min Rain = 0
KTA1 231450Z 24020KT 06/M05 A2991 RMK A01 T00571053  RH  045%=      5-min Rain = 0
KTA1 231451Z 24018G27KT 06/M05 A2991 RMK A01 T00581052  RH  045%=      5-min Rain = 0
KTA1 231452Z 24021G26KT 06/M05 A2991 RMK A01 T00591052  RH  045%=      5-min Rain = 0
KTA1 231453Z 24023KT 06/M05 A2991 RMK A01 T00591054  RH  044%=      5-min Rain = 0
KTA1 231454Z 25021G26KT 06/M05 A2992 RMK A01 T00591054  RH  044%=      5-min Rain = 0
KTA1 231455Z 24021G29KT 06/M05 A2992 RMK A01 T00591054  RH  044%=      5-min Rain = 0
KTA1 231456Z 25024G29KT 06/M05 A2992 RMK A01 T00591054  RH  044%=      5-min Rain = 0
KTA1 231457Z 25023KT 06/M06 A2992 RMK A01 T00591055  RH  044%=      5-min Rain = 0
KTA1 231458Z 24021G27KT 06/M06 A2992 RMK A01 T00591055  RH  044%=      5-min Rain = 0
KTA1 231459Z 24025G30KT 06/M05 A2992 RMK A01 T00601054  RH  044%=      5-min Rain = 0
KTA1 231500Z 24025G30KT 06/M05 A2992 RMK A01 T00601054  RH  044%=      5-min Rain = 0
KTA1 231501Z 24019G24KT 06/M05 A2992 RMK A01 T00601054  RH  044%=      5-min Rain = 0
KTA1 231502Z 24022KT 06/M05 A2992 RMK A01 T00611052  RH  044%=      5-min Rain = 0
KTA1 231503Z 24025G30KT 06/M05 A2992 RMK A01 T00611054  RH  043%=      5-min Rain = 0
KTA1 231504Z 24023KT 06/M06 A2992 RMK A01 T00611055  RH  043%=      5-min Rain = 0
KTA1 231505Z 24019G25KT 06/M06 A2992 RMK A01 T00611055  RH  043%=      5-min Rain = 0
KTA1 231506Z 23024G30KT 06/M05 A2992 RMK A01 T00621054  RH  043%=      5-min Rain = 0
KTA1 231507Z 24024G31KT 06/M06 A2993 RMK A01 T00621056  RH  042%=      5-min Rain = 0
KTA1 231508Z 24024G29KT 06/M06 A2993 RMK A01 T00621056  RH  042%=      5-min Rain = 0
KTA1 231509Z 24023KT 06/M06 A2993 RMK A01 T00621056  RH  042%=      5-min Rain = 0
KTA1 231510Z 24021G28KT 06/M06 A2993 RMK A01 T00631056  RH  042%=      5-min Rain = 0
KTA1 231511Z 24023KT 06/M06 A2993 RMK A01 T00631056  RH  042%=      5-min Rain = 0
KTA1 231512Z 24021G26KT 06/M06 A2994 RMK A01 T00641055  RH  042%=      5-min Rain = 0
KTA1 231513Z 24024G29KT 07/M05 A2993 RMK A01 T00651054  RH  042%=      5-min Rain = 0
KTA1 231514Z 24023KT 07/M06 A2993 RMK A01 T00651055  RH  042%=      5-min Rain = 0
KTA1 231515Z 24025G30KT 07/M06 A2993 RMK A01 T00651056  RH  042%=      5-min Rain = 0
KTA1 231516Z 24021G26KT 07/M06 A2993 RMK A01 T00651057  RH  041%=      5-min Rain = 0
KTA1 231517Z 24019G25KT 07/M06 A2993 RMK A01 T00661056  RH  042%=      5-min Rain = 0
KTA1 231518Z 24024KT 07/M06 A2993 RMK A01 T00671055  RH  042%=      5-min Rain = 0
KTA1 231519Z 24025KT 07/M06 A2993 RMK A01 T00671056  RH  041%=      5-min Rain = 0
KTA1 231520Z 24024G31KT 07/M06 A2993 RMK A01 T00661056  RH  041%=      5-min Rain = 0
KTA1 231521Z 24024KT 07/M06 A2993 RMK A01 T00661058  RH  041%=      5-min Rain = 0
KTA1 231522Z 24023G28KT 07/M06 A2992 RMK A01 T00671057  RH  041%=      5-min Rain = 0
KTA1 231523Z 24026G33KT 07/M06 A2992 RMK A01 T00681057  RH  040%=      5-min Rain = 0
KTA1 231524Z 24025G34KT 07/M06 A2992 RMK A01 T00681058  RH  040%=      5-min Rain = 0
KTA1 231525Z 24026G31KT 07/M06 A2992 RMK A01 T00681058  RH  040%=      5-min Rain = 0
KTA1 231526Z 24026KT 07/M06 A2992 RMK A01 T00671059  RH  040%=      5-min Rain = 0
KTA1 231527Z 24022KT 07/M06 A2992 RMK A01 T00671059  RH  040%=      5-min Rain = 0
KTA1 231528Z 24025G31KT 07/M06 A2992 RMK A01 T00681057  RH  041%=      5-min Rain = 0
KTA1 231529Z 24022KT 07/M06 A2993 RMK A01 T00681057  RH  040%=      5-min Rain = 0
KTA1 231530Z 24020G25KT 07/M06 A2993 RMK A01 T00691056  RH  040%=      5-min Rain = 0
KTA1 231531Z 24022G28KT 07/M06 A2993 RMK A01 T00711056  RH  040%=      5-min Rain = 0
KTA1 231532Z 24022G27KT 07/M06 A2993 RMK A01 T00731056  RH  040%=      5-min Rain = 0
KTA1 231533Z 24025KT 07/M06 A2993 RMK A01 T00731058  RH  039%=      5-min Rain = 0
KTA1 231534Z 24024G29KT 07/M06 A2992 RMK A01 T00711059  RH  039%=      5-min Rain = 0
KTA1 231535Z 24024G30KT 07/M06 A2992 RMK A01 T00711058  RH  039%=      5-min Rain = 0
KTA1 231536Z 24025G30KT 07/M06 A2993 RMK A01 T00721059  RH  039%=      5-min Rain = 0
KTA1 231537Z 24029KT 07/M06 A2992 RMK A01 T00731059  RH  039%=      5-min Rain = 0
KTA1 231538Z 24027KT 07/M06 A2992 RMK A01 T00711060  RH  039%=      5-min Rain = 0
KTA1 231539Z 24026KT 07/M06 A2992 RMK A01 T00711059  RH  039%=      5-min Rain = 0
KTA1 231540Z 25028KT 07/M06 A2992 RMK A01 T00711060  RH  039%=      5-min Rain = 0
KTA1 231541Z 25025G34KT 07/M06 A2993 RMK A01 T00721062  RH  038%=      5-min Rain = 0
KTA1 231542Z 25029KT 07/M06 A2992 RMK A01 T00731063  RH  037%=      5-min Rain = 0
KTA1 231543Z 24029KT 07/M06 A2993 RMK A01 T00731062  RH  038%=      5-min Rain = 0
KTA1 231544Z 24023G29KT 07/M06 A2993 RMK A01 T00731062  RH  038%=      5-min Rain = 0
KTA1 231545Z 24023G28KT 07/M06 A2993 RMK A01 T00741060  RH  038%=      5-min Rain = 0
KTA1 231546Z 25029KT 08/M06 A2992 RMK A01 T00761062  RH  037%=      5-min Rain = 0
KTA1 231547Z 25025G31KT 08/M07 A2993 RMK A01 T00751066  RH  036%=      5-min Rain = 0
KTA1 231548Z 25027G33KT 08/M07 A2993 RMK A01 T00761065  RH  036%=      5-min Rain = 0
KTA1 231549Z 25026G33KT 08/M07 A2993 RMK A01 T00761066  RH  036%=      5-min Rain = 0
KTA1 231550Z 24027G34KT 08/M07 A2993 RMK A01 T00761065  RH  036%=      5-min Rain = 0
KTA1 231551Z 25028G34KT 08/M07 A2993 RMK A01 T00771066  RH  036%=      5-min Rain = 0
KTA1 231552Z 25024G29KT 08/M07 A2993 RMK A01 T00771066  RH  035%=      5-min Rain = 0
KTA1 231553Z 25023G28KT 08/M06 A2993 RMK A01 T00781063  RH  036%=      5-min Rain = 0
KTA1 231554Z 25026G32KT 08/M06 A2993 RMK A01 T00801062  RH  036%=      5-min Rain = 0
KTA1 231555Z 24027KT 08/M07 A2993 RMK A01 T00801065  RH  035%=      5-min Rain = 0
KTA1 231556Z 24025G34KT 08/M07 A2993 RMK A01 T00801065  RH  035%=      5-min Rain = 0
KTA1 231557Z 24028G34KT 08/M07 A2993 RMK A01 T00811065  RH  035%=      5-min Rain = 0
KTA1 231558Z 25022G30KT 08/M07 A2994 RMK A01 T00801066  RH  035%=      5-min Rain = 0
KTA1 231559Z 24023G28KT 08/M06 A2994 RMK A01 T00821063  RH  035%=      5-min Rain = 0
KTA1 231600Z 24024G31KT 08/M07 A2994 RMK A01 T00831065  RH  034%=      5-min Rain = 0
KTA1 231601Z 24027G32KT 08/M07 A2994 RMK A01 T00831067  RH  034%=      5-min Rain = 0
KTA1 231602Z 25026KT 08/M07 A2994 RMK A01 T00831068  RH  034%=      5-min Rain = 0
KTA1 231603Z 25024G29KT 08/M07 A2994 RMK A01 T00831067  RH  034%=      5-min Rain = 0
KTA1 231604Z 25020G26KT 08/M07 A2994 RMK A01 T00831065  RH  034%=      5-min Rain = 0
KTA1 231605Z 25023G31KT 09/M06 A2994 RMK A01 T00861062  RH  035%=      5-min Rain = 0
KTA1 231606Z 24027KT 09/M06 A2994 RMK A01 T00871064  RH  034%=      5-min Rain = 0
KTA1 231607Z 24022G27KT 09/M07 A2994 RMK A01 T00861065  RH  034%=      5-min Rain = 0
KTA1 231608Z 24021G28KT 09/M06 A2995 RMK A01 T00871062  RH  034%=      5-min Rain = 0
KTA1 231609Z 24024G29KT 09/M07 A2994 RMK A01 T00881065  RH  033%=      5-min Rain = 0
KTA1 231610Z 24024G30KT 09/M07 A2994 RMK A01 T00881067  RH  033%=      5-min Rain = 0
KTA1 231611Z 24023G28KT 09/M07 A2994 RMK A01 T00881068  RH  032%=      5-min Rain = 0
KTA1 231612Z 24027G33KT 09/M07 A2994 RMK A01 T00881069  RH  032%=      5-min Rain = 0
KTA1 231613Z 24021G27KT 09/M07 A2995 RMK A01 T00891069  RH  032%=      5-min Rain = 0
KTA1 231614Z 24028G33KT 09/M07 A2994 RMK A01 T00891068  RH  032%=      5-min Rain = 0
KTA1 231615Z 25025G31KT 09/M07 A2995 RMK A01 T00891070  RH  032%=      5-min Rain = 0
KTA1 231616Z 25025KT 09/M07 A2995 RMK A01 T00881071  RH  032%=      5-min Rain = 0
KTA1 231617Z 26025G31KT 09/M07 A2995 RMK A01 T00871068  RH  033%=      5-min Rain = 0
KTA1 231618Z 25021KT 09/M07 A2995 RMK A01 T00881070  RH  032%=      5-min Rain = 0
KTA1 231619Z 25024G29KT 09/M07 A2995 RMK A01 T00891067  RH  033%=      5-min Rain = 0
KTA1 231620Z 24024G29KT 09/M07 A2995 RMK A01 T00901067  RH  032%=      5-min Rain = 0
KTA1 231621Z 24025G34KT 09/M07 A2995 RMK A01 T00911068  RH  032%=      5-min Rain = 0
KTA1 231622Z 25027G33KT 09/M07 A2995 RMK A01 T00921069  RH  031%=      5-min Rain = 0
KTA1 231623Z 24024G30KT 09/M07 A2995 RMK A01 T00921071  RH  031%=      5-min Rain = 0
KTA1 231624Z 24025G31KT 09/M07 A2995 RMK A01 T00921071  RH  031%=      5-min Rain = 0
KTA1 231625Z 24025KT 09/M07 A2995 RMK A01 T00921070  RH  031%=      5-min Rain = 0
KTA1 231626Z 25021G28KT 09/M07 A2995 RMK A01 T00921069  RH  031%=      5-min Rain = 0
KTA1 231627Z 26025G31KT 09/M07 A2995 RMK A01 T00921070  RH  031%=      5-min Rain = 0
KTA1 231628Z 25022G27KT 09/M07 A2995 RMK A01 T00921072  RH  031%=      5-min Rain = 0
KTA1 231629Z 25028KT 09/M07 A2995 RMK A01 T00931069  RH  031%=      5-min Rain = 0
KTA1 231630Z 26023G28KT 09/M07 A2995 RMK A01 T00931069  RH  031%=      5-min Rain = 0
KTA1 231631Z 26026KT 10/M07 A2995 RMK A01 T00951070  RH  031%=      5-min Rain = 0
KTA1 231632Z 25023G30KT 09/M07 A2995 RMK A01 T00941072  RH  030%=      5-min Rain = 0
KTA1 231633Z 25024G30KT 09/M07 A2995 RMK A01 T00941070  RH  031%=      5-min Rain = 0
KTA1 231634Z 24026G31KT 09/M07 A2995 RMK A01 T00941070  RH  031%=      5-min Rain = 0
KTA1 231635Z 25024G32KT 09/M07 A2995 RMK A01 T00941070  RH  031%=      5-min Rain = 0
KTA1 231636Z 25022G34KT 10/M07 A2995 RMK A01 T00951068  RH  031%=      5-min Rain = 0
KTA1 231637Z 26027G34KT 10/M07 A2995 RMK A01 T00971069  RH  030%=      5-min Rain = 0
KTA1 231638Z 25024G33KT 10/M07 A2995 RMK A01 T00951071  RH  030%=      5-min Rain = 0
KTA1 231639Z 25027G32KT 10/M07 A2995 RMK A01 T00951070  RH  030%=      5-min Rain = 0
KTA1 231640Z 24025KT 09/M07 A2995 RMK A01 T00941071  RH  030%=      5-min Rain = 0
KTA1 231641Z 24026KT 10/M07 A2995 RMK A01 T00951070  RH  031%=      5-min Rain = 0
KTA1 231642Z 25023KT 10/M07 A2995 RMK A01 T00951070  RH  030%=      5-min Rain = 0
KTA1 231643Z 24023KT 09/M07 A2995 RMK A01 T00941070  RH  031%=      5-min Rain = 0
KTA1 231644Z 24023G30KT 10/M07 A2995 RMK A01 T00961067  RH  031%=      5-min Rain = 0
KTA1 231645Z 24026G33KT 10/M07 A2996 RMK A01 T00991067  RH  030%=      5-min Rain = 0
KTA1 231646Z 25024G29KT 10/M07 A2996 RMK A01 T00991070  RH  030%=      5-min Rain = 0
KTA1 231647Z 25021G28KT 10/M07 A2996 RMK A01 T00981069  RH  030%=      5-min Rain = 0
KTA1 231648Z 25026G31KT 10/M07 A2996 RMK A01 T01001068  RH  030%=      5-min Rain = 0
KTA1 231649Z 25023G28KT 10/M07 A2996 RMK A01 T00981073  RH  029%=      5-min Rain = 0
KTA1 231650Z 26025G33KT 10/M07 A2995 RMK A01 T00981073  RH  029%=      5-min Rain = 0
KTA1 231651Z 25026G32KT 10/M07 A2995 RMK A01 T00981073  RH  029%=      5-min Rain = 0
KTA1 231652Z 24027KT 10/M07 A2995 RMK A01 T00981073  RH  029%=      5-min Rain = 0
KTA1 231653Z 25023G30KT 10/M07 A2995 RMK A01 T00991073  RH  029%=      5-min Rain = 0
KTA1 231654Z 25026G34KT 10/M07 A2995 RMK A01 T01001074  RH  029%=      5-min Rain = 0
KTA1 231655Z 25024G30KT 10/M08 A2995 RMK A01 T01001075  RH  028%=      5-min Rain = 0
KTA1 231656Z 26021G27KT 10/M07 A2996 RMK A01 T01011072  RH  029%=      5-min Rain = 0
KTA1 231657Z 25029G34KT 10/M07 A2996 RMK A01 T01031072  RH  028%=      5-min Rain = 0
KTA1 231658Z 26028KT 10/M08 A2996 RMK A01 T01011076  RH  028%=      5-min Rain = 0
KTA1 231659Z 25027G33KT 10/M08 A2996 RMK A01 T01001076  RH  028%=      5-min Rain = 0
KTA1 231700Z 25024KT 10/M08 A2996 RMK A01 T00991075  RH  029%=      5-min Rain = 0
KTA1 231701Z 25026KT 10/M07 A2996 RMK A01 T01011073  RH  029%=      5-min Rain = 0
KTA1 231702Z 25026G32KT 10/M07 A2996 RMK A01 T01021074  RH  028%=      5-min Rain = 0
KTA1 231703Z 25025G30KT 10/M07 A2996 RMK A01 T01031074  RH  028%=      5-min Rain = 0
KTA1 231704Z 24021KT 10/M07 A2996 RMK A01 T01031071  RH  029%=      5-min Rain = 0
KTA1 231705Z 24022G30KT 11/M07 A2996 RMK A01 T01061067  RH  029%=      5-min Rain = 0
KTA1 231706Z 24028G36KT 11/M07 A2996 RMK A01 T01061071  RH  028%=      5-min Rain = 0
KTA1 231707Z 24028G34KT 10/M08 A2996 RMK A01 T01041075  RH  028%=      5-min Rain = 0
KTA1 231708Z 25024G29KT 10/M08 A2996 RMK A01 T01031075  RH  028%=      5-min Rain = 0
KTA1 231709Z 25025G32KT 10/M08 A2996 RMK A01 T01041075  RH  028%=      5-min Rain = 0
KTA1 231710Z 25027G34KT 10/M07 A2996 RMK A01 T01041073  RH  028%=      5-min Rain = 0
KTA1 231711Z 25025G31KT 11/M07 A2996 RMK A01 T01051074  RH  028%=      5-min Rain = 0
KTA1 231712Z 25024KT 11/M08 A2996 RMK A01 T01051075  RH  028%=      5-min Rain = 0
KTA1 231713Z 24021G27KT 11/M07 A2996 RMK A01 T01061074  RH  028%=      5-min Rain = 0
KTA1 231714Z 25023KT 11/M07 A2996 RMK A01 T01091070  RH  028%=      5-min Rain = 0
KTA1 231715Z 24030G35KT 11/M07 A2996 RMK A01 T01091074  RH  027%=      5-min Rain = 0
KTA1 231716Z 24026KT 11/M08 A2996 RMK A01 T01051077  RH  027%=      5-min Rain = 0
KTA1 231717Z 24026G32KT 10/M08 A2996 RMK A01 T01041075  RH  028%=      5-min Rain = 0
KTA1 231718Z 25026G32KT 11/M07 A2996 RMK A01 T01061074  RH  027%=      5-min Rain = 0
KTA1 231719Z 25028G34KT 11/M07 A2996 RMK A01 T01061074  RH  027%=      5-min Rain = 0
KTA1 231720Z 24029KT 11/M07 A2996 RMK A01 T01061074  RH  027%=      5-min Rain = 0
KTA1 231721Z 24025KT 11/M07 A2996 RMK A01 T01081074  RH  027%=      5-min Rain = 0
KTA1 231722Z 24025G31KT 11/M08 A2996 RMK A01 T01091075  RH  027%=      5-min Rain = 0
KTA1 231723Z 25021G30KT 11/M08 A2996 RMK A01 T01081076  RH  027%=      5-min Rain = 0
KTA1 231724Z 25021G26KT 11/M07 A2996 RMK A01 T01091074  RH  027%=      5-min Rain = 0
KTA1 231725Z 26027G36KT 11/M07 A2996 RMK A01 T01111073  RH  027%=      5-min Rain = 0
KTA1 231726Z 26025G31KT 11/M07 A2996 RMK A01 T01121074  RH  026%=      5-min Rain = 0
KTA1 231727Z 27025G31KT 11/M08 A2996 RMK A01 T01111077  RH  026%=      5-min Rain = 0
KTA1 231728Z 25027G35KT 11/M08 A2996 RMK A01 T01101079  RH  026%=      5-min Rain = 0
KTA1 231729Z 26020G25KT 11/M08 A2996 RMK A01 T01091076  RH  027%=      5-min Rain = 0
KTA1 231730Z 26023G28KT 11/M07 A2996 RMK A01 T01111073  RH  027%=      5-min Rain = 0
KTA1 231731Z 25024G33KT 11/M07 A2996 RMK A01 T01131073  RH  026%=      5-min Rain = 0
KTA1 231732Z 26025G31KT 11/M08 A2997 RMK A01 T01131075  RH  026%=      5-min Rain = 0
KTA1 231733Z 25024G30KT 11/M08 A2996 RMK A01 T01121077  RH  026%=      5-min Rain = 0
KTA1 231734Z 25025KT 11/M08 A2996 RMK A01 T01111077  RH  026%=      5-min Rain = 0
KTA1 231735Z 27024G30KT 11/M08 A2997 RMK A01 T01111075  RH  026%=      5-min Rain = 0
KTA1 231736Z 26021G26KT 11/M08 A2996 RMK A01 T01131075  RH  026%=      5-min Rain = 0
KTA1 231737Z 26026G32KT 11/M08 A2997 RMK A01 T01141075  RH  026%=      5-min Rain = 0
KTA1 231738Z 25024KT 11/M08 A2997 RMK A01 T01131076  RH  026%=      5-min Rain = 0
KTA1 231739Z 25028G35KT 11/M08 A2996 RMK A01 T01121076  RH  026%=      5-min Rain = 0
KTA1 231740Z 25025G30KT 11/M07 A2996 RMK A01 T01121074  RH  026%=      5-min Rain = 0
KTA1 231741Z 24023G29KT 11/M07 A2997 RMK A01 T01141074  RH  026%=      5-min Rain = 0
KTA1 231742Z 25025KT 12/M07 A2996 RMK A01 T01161073  RH  026%=      5-min Rain = 0
KTA1 231743Z 25025G30KT 12/M08 A2996 RMK A01 T01161075  RH  026%=      5-min Rain = 0
KTA1 231744Z 25028G33KT 12/M08 A2996 RMK A01 T01151076  RH  026%=      5-min Rain = 0
KTA1 231745Z 25025G30KT 11/M08 A2996 RMK A01 T01141076  RH  026%=      5-min Rain = 0
KTA1 231746Z 26026G36KT 12/M07 A2996 RMK A01 T01151074  RH  026%=      5-min Rain = 0
KTA1 231747Z 25025G32KT 12/M08 A2996 RMK A01 T01161075  RH  025%=      5-min Rain = 0
KTA1 231748Z 26026G32KT 12/M08 A2996 RMK A01 T01161076  RH  025%=      5-min Rain = 0
KTA1 231749Z 27024KT 12/M08 A2996 RMK A01 T01151076  RH  025%=      5-min Rain = 0
KTA1 231750Z 27023KT 12/M08 A2996 RMK A01 T01151076  RH  025%=      5-min Rain = 0
KTA1 231751Z 26024G31KT 12/M08 A2996 RMK A01 T01161076  RH  025%=      5-min Rain = 0
KTA1 231752Z 26029G37KT 12/M08 A2996 RMK A01 T01171075  RH  025%=      5-min Rain = 0
KTA1 231753Z 26025G33KT 11/M08 A2996 RMK A01 T01141076  RH  026%=      5-min Rain = 0
KTA1 231754Z 25028G34KT 12/M08 A2996 RMK A01 T01161075  RH  026%=      5-min Rain = 0
KTA1 231755Z 25028G35KT 12/M08 A2996 RMK A01 T01161078  RH  025%=      5-min Rain = 0
KTA1 231756Z 26022G28KT 12/M08 A2996 RMK A01 T01171077  RH  025%=      5-min Rain = 0
KTA1 231757Z 26022G28KT 12/M08 A2996 RMK A01 T01191075  RH  025%=      5-min Rain = 0
KTA1 231758Z 26020G26KT 12/M08 A2997 RMK A01 T01191075  RH  025%=      5-min Rain = 0
KTA1 231759Z 26024KT 12/M07 A2996 RMK A01 T01211072  RH  025%=      5-min Rain = 0
KTA1 231800Z 26022G27KT 12/M08 A2996 RMK A01 T01211076  RH  024%=      5-min Rain = 0
KTA1 231801Z 26021G28KT 12/M08 A2996 RMK A01 T01201075  RH  025%=      5-min Rain = 0
KTA1 231802Z 26024KT 12/M08 A2996 RMK A01 T01211075  RH  025%=      5-min Rain = 0
KTA1 231803Z 25024G32KT 12/M08 A2996 RMK A01 T01221075  RH  025%=      5-min Rain = 0
KTA1 231804Z 25025G31KT 13/M07 A2996 RMK A01 T01251072  RH  025%=      5-min Rain = 0
KTA1 231805Z 25022G27KT 12/M08 A2996 RMK A01 T01231078  RH  024%=      5-min Rain = 0
KTA1 231806Z 25021G29KT 12/M08 A2996 RMK A01 T01211075  RH  025%=      5-min Rain = 0
KTA1 231807Z 25020G32KT 13/M07 A2996 RMK A01 T01261070  RH  025%=      5-min Rain = 0
KTA1 231808Z 25027G32KT 13/M07 A2996 RMK A01 T01281071  RH  024%=      5-min Rain = 0
KTA1 231809Z 26024G30KT 13/M07 A2996 RMK A01 T01261074  RH  024%=      5-min Rain = 0
KTA1 231810Z 25026KT 13/M08 A2996 RMK A01 T01261075  RH  024%=      5-min Rain = 0
KTA1 231811Z 25025G33KT 13/M08 A2996 RMK A01 T01261075  RH  024%=      5-min Rain = 0
KTA1 231812Z 26024G29KT 13/M08 A2996 RMK A01 T01281079  RH  023%=      5-min Rain = 0
KTA1 231813Z 26021KT 13/M08 A2996 RMK A01 T01261080  RH  023%=      5-min Rain = 0
KTA1 231814Z 26027G32KT 13/M08 A2996 RMK A01 T01281077  RH  023%=      5-min Rain = 0
KTA1 231815Z 26028G33KT 13/M08 A2996 RMK A01 T01281080  RH  023%=      5-min Rain = 0
KTA1 231816Z 25029G35KT 13/M08 A2995 RMK A01 T01261083  RH  022%=      5-min Rain = 0
KTA1 231817Z 25029KT 13/M08 A2995 RMK A01 T01261084  RH  022%=      5-min Rain = 0
KTA1 231818Z 25024G32KT 13/M08 A2995 RMK A01 T01281083  RH  022%=      5-min Rain = 0
KTA1 231819Z 26025KT 13/M08 A2995 RMK A01 T01311082  RH  022%=      5-min Rain = 0
KTA1 231820Z 26024G30KT 13/M09 A2995 RMK A01 T01301085  RH  022%=      5-min Rain = 0
KTA1 231821Z 25025G30KT 13/M08 A2995 RMK A01 T01301081  RH  022%=      5-min Rain = 0
KTA1 231822Z 25029G36KT 13/M08 A2995 RMK A01 T01311080  RH  022%=      5-min Rain = 0
KTA1 231823Z 25025G31KT 13/M08 A2995 RMK A01 T01301080  RH  022%=      5-min Rain = 0
KTA1 231824Z 26026G31KT 13/M08 A2995 RMK A01 T01301080  RH  022%=      5-min Rain = 0
KTA1 231825Z 26022G28KT 13/M08 A2995 RMK A01 T01281083  RH  022%=      5-min Rain = 0
KTA1 231826Z 26026G31KT 13/M08 A2995 RMK A01 T01291080  RH  023%=      5-min Rain = 0
KTA1 231827Z 26025G30KT 13/M08 A2995 RMK A01 T01301083  RH  022%=      5-min Rain = 0
KTA1 231828Z 27024G30KT 13/M08 A2996 RMK A01 T01311081  RH  022%=      5-min Rain = 0
KTA1 231829Z 27025KT 14/M08 A2996 RMK A01 T01351084  RH  021%=      5-min Rain = 0
KTA1 231830Z 27026KT 14/M09 A2995 RMK A01 T01361089  RH  020%=      5-min Rain = 0
KTA1 231831Z 27022KT 13/M09 A2995 RMK A01 T01341091  RH  020%=      5-min Rain = 0
KTA1 231832Z 26020G26KT 14/M09 A2995 RMK A01 T01351085  RH  021%=      5-min Rain = 0
KTA1 231833Z 26025G31KT 14/M08 A2995 RMK A01 T01381084  RH  021%=      5-min Rain = 0
KTA1 231834Z 28030G36KT 14/M09 A2995 RMK A01 T01371090  RH  020%=      5-min Rain = 0
KTA1 231835Z 26031G38KT 14/M10 A2994 RMK A01 T01381097  RH  019%=      5-min Rain = 0
KTA1 231836Z 26028G37KT 14/M10 A2994 RMK A01 T01371102  RH  018%=      5-min Rain = 0
KTA1 231837Z 27030G35KT 14/M10 A2994 RMK A01 T01371103  RH  018%=      5-min Rain = 0
KTA1 231838Z 27025G30KT 14/M10 A2995 RMK A01 T01381099  RH  018%=      5-min Rain = 0
KTA1 231839Z 25026G32KT 14/M09 A2995 RMK A01 T01401089  RH  020%=      5-min Rain = 0
KTA1 231840Z 25025G31KT 14/M09 A2995 RMK A01 T01361086  RH  020%=      5-min Rain = 0
KTA1 231841Z 26023G28KT 14/M09 A2995 RMK A01 T01361085  RH  021%=      5-min Rain = 0
KTA1 231842Z 26026G31KT 14/M09 A2995 RMK A01 T01371088  RH  020%=      5-min Rain = 0
KTA1 231843Z 26029G36KT 14/M09 A2994 RMK A01 T01371091  RH  020%=      5-min Rain = 0
KTA1 231844Z 27026G31KT 14/M09 A2995 RMK A01 T01371093  RH  019%=      5-min Rain = 0
KTA1 231845Z 27025G31KT 14/M10 A2995 RMK A01 T01381095  RH  019%=      5-min Rain = 0
KTA1 231846Z 26025G31KT 14/M09 A2995 RMK A01 T01411092  RH  019%=      5-min Rain = 0
KTA1 231847Z 26028G34KT 14/M10 A2994 RMK A01 T01431095  RH  018%=      5-min Rain = 0
KTA1 231848Z 27027G34KT 14/M10 A2994 RMK A01 T01421099  RH  018%=      5-min Rain = 0
KTA1 231849Z 26025G33KT 14/M10 A2994 RMK A01 T01421100  RH  018%=      5-min Rain = 0
KTA1 231850Z 27026G33KT 14/M10 A2995 RMK A01 T01411103  RH  017%=      5-min Rain = 0
KTA1 231851Z 27027G33KT 14/M10 A2995 RMK A01 T01411103  RH  017%=      5-min Rain = 0
KTA1 231852Z 28022G29KT 15/M10 A2995 RMK A01 T01451100  RH  017%=      5-min Rain = 0
KTA1 231853Z 27023G31KT 15/M10 A2995 RMK A01 T01491100  RH  017%=      5-min Rain = 0
KTA1 231854Z 26026KT 15/M10 A2994 RMK A01 T01481103  RH  017%=      5-min Rain = 0
KTA1 231855Z 27026G31KT 15/M10 A2994 RMK A01 T01451103  RH  017%=      5-min Rain = 0
KTA1 231856Z 26026G31KT 15/M10 A2994 RMK A01 T01451103  RH  017%=      5-min Rain = 0
KTA1 231857Z 26027G34KT 14/M10 A2994 RMK A01 T01441103  RH  017%=      5-min Rain = 0
KTA1 231858Z 26032G39KT 14/M11 A2994 RMK A01 T01441105  RH  017%=      5-min Rain = 0
KTA1 231859Z 26029G40KT 14/M11 A2994 RMK A01 T01421109  RH  017%=      5-min Rain = 0
KTA1 231900Z 27027G32KT 14/M11 A2994 RMK A01 T01421109  RH  017%=      5-min Rain = 0
KTA1 231901Z 28028G35KT 14/M11 A2994 RMK A01 T01431106  RH  017%=      5-min Rain = 0
KTA1 231902Z 27030G35KT 15/M11 A2994 RMK A01 T01451108  RH  016%=      5-min Rain = 0
KTA1 231903Z 27032G37KT 15/M11 A2994 RMK A01 T01451105  RH  017%=      5-min Rain = 0
KTA1 231904Z 26027KT 14/M10 A2994 RMK A01 T01431103  RH  017%=      5-min Rain = 0
KTA1 231905Z 27028KT 14/M10 A2994 RMK A01 T01421102  RH  017%=      5-min Rain = 0
KTA1 231906Z 27025G31KT 14/M11 A2994 RMK A01 T01421106  RH  017%=      5-min Rain = 0
KTA1 231907Z 27029G34KT 15/M11 A2994 RMK A01 T01451108  RH  016%=      5-min Rain = 0
KTA1 231908Z 28025G31KT 14/M11 A2994 RMK A01 T01441111  RH  016%=      5-min Rain = 0
KTA1 231909Z 28032G38KT 14/M11 A2994 RMK A01 T01431110  RH  016%=      5-min Rain = 0
KTA1 231910Z 28031G37KT 14/M11 A2994 RMK A01 T01431112  RH  016%=      5-min Rain = 0
KTA1 231911Z 27026G33KT 14/M11 A2995 RMK A01 T01441113  RH  016%=      5-min Rain = 0
KTA1 231912Z 27031G40KT 14/M11 A2994 RMK A01 T01441112  RH  016%=      5-min Rain = 0
KTA1 231913Z 27030KT 14/M11 A2994 RMK A01 T01441114  RH  016%=      5-min Rain = 0
KTA1 231914Z 28031G38KT 14/M12 A2995 RMK A01 T01441115  RH  016%=      5-min Rain = 0
KTA1 231915Z 28033G38KT 14/M12 A2995 RMK A01 T01441117  RH  015%=      5-min Rain = 0
KTA1 231916Z 28029G35KT 14/M12 A2995 RMK A01 T01441118  RH  015%=      5-min Rain = 0
KTA1 231917Z 28026G33KT 14/M12 A2995 RMK A01 T01431117  RH  015%=      5-min Rain = 0
KTA1 231918Z 28023G28KT 15/M11 A2995 RMK A01 T01451113  RH  016%=      5-min Rain = 0
KTA1 231919Z 27026KT 15/M11 A2995 RMK A01 T01471112  RH  016%=      5-min Rain = 0
KTA1 231920Z 27027G37KT 15/M11 A2995 RMK A01 T01451111  RH  016%=      5-min Rain = 0
KTA1 231921Z 27023G30KT 15/M11 A2995 RMK A01 T01451110  RH  016%=      5-min Rain = 0
KTA1 231922Z 27030G38KT 15/M11 A2994 RMK A01 T01461111  RH  016%=      5-min Rain = 0
KTA1 231923Z 27029G34KT 15/M11 A2994 RMK A01 T01461113  RH  015%=      5-min Rain = 0
KTA1 231924Z 27031G37KT 15/M11 A2994 RMK A01 T01461113  RH  016%=      5-min Rain = 0
KTA1 231925Z 27027G35KT 15/M11 A2995 RMK A01 T01471114  RH  015%=      5-min Rain = 0
KTA1 231926Z 28027G36KT 15/M11 A2994 RMK A01 T01471113  RH  015%=      5-min Rain = 0
KTA1 231927Z 27026KT 15/M11 A2994 RMK A01 T01471113  RH  015%=      5-min Rain = 0
KTA1 231928Z 27030G37KT 15/M11 A2994 RMK A01 T01471113  RH  015%=      5-min Rain = 0
KTA1 231929Z 27027G36KT 14/M12 A2994 RMK A01 T01441115  RH  015%=      5-min Rain = 0
KTA1 231930Z 27023G29KT 14/M11 A2994 RMK A01 T01431113  RH  016%=      5-min Rain = 0
KTA1 231931Z 28028G33KT 15/M11 A2994 RMK A01 T01451109  RH  016%=      5-min Rain = 0
KTA1 231932Z 27028G34KT 15/M11 A2994 RMK A01 T01461110  RH  016%=      5-min Rain = 0
KTA1 231933Z 27023KT 15/M11 A2994 RMK A01 T01471106  RH  016%=      5-min Rain = 0
KTA1 231934Z 27022G29KT 15/M11 A2994 RMK A01 T01501105  RH  016%=      5-min Rain = 0
KTA1 231935Z 28026G31KT 15/M11 A2994 RMK A01 T01501107  RH  016%=      5-min Rain = 0
KTA1 231936Z 27029G36KT 15/M11 A2994 RMK A01 T01501108  RH  016%=      5-min Rain = 0
KTA1 231937Z 27031G38KT 15/M11 A2994 RMK A01 T01471114  RH  015%=      5-min Rain = 0
KTA1 231938Z 28027G33KT 15/M12 A2994 RMK A01 T01451115  RH  015%=      5-min Rain = 0
KTA1 231939Z 29027G34KT 15/M11 A2994 RMK A01 T01461113  RH  016%=      5-min Rain = 0
KTA1 231940Z 28024G30KT 15/M11 A2994 RMK A01 T01471110  RH  016%=      5-min Rain = 0
KTA1 231941Z 28025G35KT 15/M11 A2994 RMK A01 T01511107  RH  016%=      5-min Rain = 0
KTA1 231942Z 28032KT 15/M11 A2994 RMK A01 T01521109  RH  015%=      5-min Rain = 0
KTA1 231943Z 27028G35KT 15/M11 A2994 RMK A01 T01501114  RH  015%=      5-min Rain = 0
KTA1 231944Z 27028G36KT 15/M11 A2994 RMK A01 T01481114  RH  015%=      5-min Rain = 0
KTA1 231945Z 27028G34KT 15/M11 A2994 RMK A01 T01471112  RH  016%=      5-min Rain = 0
KTA1 231946Z 28026G33KT 15/M11 A2994 RMK A01 T01451114  RH  015%=      5-min Rain = 0
KTA1 231947Z 26027G35KT 15/M11 A2994 RMK A01 T01451111  RH  016%=      5-min Rain = 0
KTA1 231948Z 27025G32KT 15/M10 A2994 RMK A01 T01491104  RH  016%=      5-min Rain = 0
KTA1 231949Z 28025G32KT 15/M11 A2994 RMK A01 T01501108  RH  016%=      5-min Rain = 0
KTA1 231950Z 27025KT 15/M11 A2994 RMK A01 T01491108  RH  016%=      5-min Rain = 0
KTA1 231951Z 27027G34KT 15/M11 A2993 RMK A01 T01511108  RH  016%=      5-min Rain = 0
KTA1 231952Z 28027G33KT 15/M11 A2994 RMK A01 T01511109  RH  016%=      5-min Rain = 0
KTA1 231953Z 28025G30KT 15/M11 A2994 RMK A01 T01511110  RH  016%=      5-min Rain = 0
KTA1 231954Z 27026G35KT 15/M11 A2994 RMK A01 T01521107  RH  016%=      5-min Rain = 0
KTA1 231955Z 27025G31KT 15/M11 A2994 RMK A01 T01521111  RH  015%=      5-min Rain = 0
KTA1 231956Z 26024G30KT 15/M11 A2994 RMK A01 T01501110  RH  016%=      5-min Rain = 0
KTA1 231957Z 26031G37KT 15/M11 A2993 RMK A01 T01521108  RH  016%=      5-min Rain = 0
KTA1 231958Z 26027G33KT 15/M11 A2993 RMK A01 T01501111  RH  015%=      5-min Rain = 0
KTA1 231959Z 26022G29KT 15/M11 A2994 RMK A01 T01501107  RH  016%=      5-min Rain = 0
KTA1 232000Z 26020G29KT 15/M11 A2994 RMK A01 T01521108  RH  016%=      5-min Rain = 0
KTA1 232001Z 26021G27KT 15/M11 A2994 RMK A01 T01531108  RH  016%=      5-min Rain = 0
KTA1 232002Z 26025KT 15/M11 A2994 RMK A01 T01511113  RH  015%=      5-min Rain = 0
KTA1 232003Z 26018KT 15/M11 A2994 RMK A01 T01501112  RH  015%=      5-min Rain = 0
KTA1 232004Z 26019G26KT 15/M10 A2994 RMK A01 T01531104  RH  016%=      5-min Rain = 0
KTA1 232005Z 26023G30KT 16/M10 A2993 RMK A01 T01561104  RH  016%=      5-min Rain = 0
KTA1 232006Z 26023G28KT 16/M11 A2994 RMK A01 T01561106  RH  015%=      5-min Rain = 0
KTA1 232007Z 27019G24KT 16/M11 A2994 RMK A01 T01551107  RH  015%=      5-min Rain = 0
KTA1 232008Z 27025KT 16/M11 A2994 RMK A01 T01571109  RH  015%=      5-min Rain = 0
KTA1 232009Z 26024KT 16/M11 A2993 RMK A01 T01551113  RH  015%=      5-min Rain = 0
KTA1 232010Z 27025KT 16/M11 A2994 RMK A01 T01551111  RH  015%=      5-min Rain = 0
KTA1 232011Z 27028G34KT 16/M11 A2994 RMK A01 T01551111  RH  015%=      5-min Rain = 0
KTA1 232012Z 26028G35KT 15/M11 A2993 RMK A01 T01541113  RH  015%=      5-min Rain = 0
KTA1 232013Z 27022G28KT 16/M11 A2994 RMK A01 T01561112  RH  015%=      5-min Rain = 0
KTA1 232014Z 26028G33KT 16/M11 A2993 RMK A01 T01581114  RH  014%=      5-min Rain = 0
KTA1 232015Z 26028KT 16/M12 A2993 RMK A01 T01581116  RH  014%=      5-min Rain = 0
KTA1 232016Z 26024KT 16/M12 A2993 RMK A01 T01561115  RH  014%=      5-min Rain = 0
KTA1 232017Z 27025G30KT 16/M11 A2994 RMK A01 T01581112  RH  015%=      5-min Rain = 0
KTA1 232018Z 27027KT 16/M11 A2993 RMK A01 T01591114  RH  014%=      5-min Rain = 0
KTA1 232019Z 27025KT 16/M12 A2994 RMK A01 T01601118  RH  014%=      5-min Rain = 0
KTA1 232020Z 27022G29KT 16/M12 A2994 RMK A01 T01581119  RH  014%=      5-min Rain = 0
KTA1 232021Z 26026G33KT 16/M12 A2994 RMK A01 T01581117  RH  014%=      5-min Rain = 0
KTA1 232022Z 27025G30KT 16/M12 A2994 RMK A01 T01581121  RH  014%=      5-min Rain = 0
KTA1 232023Z 27025G30KT 16/M12 A2994 RMK A01 T01591122  RH  013%=      5-min Rain = 0
KTA1 232024Z 27022KT 16/M13 A2994 RMK A01 T01601126  RH  013%=      5-min Rain = 0
KTA1 232025Z 27024G29KT 16/M13 A2994 RMK A01 T01611126  RH  013%=      5-min Rain = 0
KTA1 232026Z 27022KT 16/M13 A2994 RMK A01 T01611126  RH  013%=      5-min Rain = 0
KTA1 232027Z 27023G28KT 16/M13 A2994 RMK A01 T01611125  RH  013%=      5-min Rain = 0
KTA1 232028Z 29024G29KT 16/M13 A2994 RMK A01 T01631127  RH  012%=      5-min Rain = 0
KTA1 232029Z 29024KT 17/M13 A2995 RMK A01 T01661129  RH  012%=      5-min Rain = 0
KTA1 232030Z 28026G32KT 17/M13 A2994 RMK A01 T01681129  RH  012%=      5-min Rain = 0
KTA1 232031Z 28024G29KT 17/M13 A2994 RMK A01 T01661133  RH  012%=      5-min Rain = 0
KTA1 232032Z 27023KT 16/M13 A2994 RMK A01 T01631134  RH  012%=      5-min Rain = 0
KTA1 232033Z 28023KT 16/M13 A2994 RMK A01 T01621131  RH  012%=      5-min Rain = 0
KTA1 232034Z 27021G27KT 16/M13 A2994 RMK A01 T01631133  RH  012%=      5-min Rain = 0
KTA1 232035Z 28022G31KT 16/M13 A2994 RMK A01 T01641130  RH  012%=      5-min Rain = 0
KTA1 232036Z 27025G30KT 17/M14 A2994 RMK A01 T01651135  RH  012%=      5-min Rain = 0
KTA1 232037Z 27025G34KT 17/M14 A2994 RMK A01 T01651137  RH  011%=      5-min Rain = 0
KTA1 232038Z 29026KT 17/M14 A2994 RMK A01 T01651141  RH  011%=      5-min Rain = 0
KTA1 232039Z 29032G40KT 17/M14 A2994 RMK A01 T01661137  RH  011%=      5-min Rain = 0
KTA1 232040Z 28032G38KT 17/M14 A2994 RMK A01 T01661141  RH  011%=      5-min Rain = 0
KTA1 232041Z 28027G34KT 16/M14 A2994 RMK A01 T01631143  RH  011%=      5-min Rain = 0
KTA1 232042Z 28029G35KT 16/M14 A2994 RMK A01 T01631140  RH  011%=      5-min Rain = 0
KTA1 232043Z 29029G36KT 16/M14 A2994 RMK A01 T01621142  RH  011%=      5-min Rain = 0
KTA1 232044Z 29028G34KT 16/M14 A2994 RMK A01 T01621142  RH  011%=      5-min Rain = 0
KTA1 232045Z 29026G33KT 16/M14 A2995 RMK A01 T01621144  RH  011%=      5-min Rain = 0
KTA1 232046Z 29025KT 16/M14 A2995 RMK A01 T01611143  RH  011%=      5-min Rain = 0
KTA1 232047Z 28026G32KT 16/M14 A2995 RMK A01 T01611142  RH  011%=      5-min Rain = 0
KTA1 232048Z 28023G28KT 16/M14 A2995 RMK A01 T01621140  RH  011%=      5-min Rain = 0
KTA1 232049Z 28025KT 16/M14 A2995 RMK A01 T01621140  RH  011%=      5-min Rain = 0
KTA1 232050Z 28025G30KT 16/M14 A2995 RMK A01 T01641136  RH  011%=      5-min Rain = 0
KTA1 232051Z 28027G33KT 17/M14 A2995 RMK A01 T01651139  RH  011%=      5-min Rain = 0
KTA1 232052Z 30027G32KT 17/M14 A2995 RMK A01 T01661141  RH  011%=      5-min Rain = 0
KTA1 232053Z 29025KT 17/M14 A2995 RMK A01 T01651142  RH  011%=      5-min Rain = 0
KTA1 232054Z 29021G27KT 17/M14 A2995 RMK A01 T01651140  RH  011%=      5-min Rain = 0
KTA1 232055Z 28022G31KT 17/M14 A2995 RMK A01 T01671135  RH  011%=      5-min Rain = 0
KTA1 232056Z 28024KT 17/M14 A2995 RMK A01 T01671137  RH  011%=      5-min Rain = 0
KTA1 232057Z 28021G26KT 17/M14 A2995 RMK A01 T01651139  RH  011%=      5-min Rain = 0
KTA1 232058Z 27019G24KT 16/M14 A2995 RMK A01 T01631139  RH  011%=      5-min Rain = 0
KTA1 232059Z 28018G23KT 16/M14 A2995 RMK A01 T01631137  RH  011%=      5-min Rain = 0
KTA1 232100Z 27018G23KT 17/M13 A2995 RMK A01 T01651134  RH  012%=      5-min Rain = 0
KTA1 232101Z 29025KT 17/M13 A2995 RMK A01 T01671133  RH  012%=      5-min Rain = 0
KTA1 232102Z 30024G31KT 17/M13 A2995 RMK A01 T01671132  RH  012%=      5-min Rain = 0
KTA1 232103Z 29026G32KT 17/M13 A2995 RMK A01 T01681132  RH  012%=      5-min Rain = 0
KTA1 232104Z 29026KT 17/M14 A2995 RMK A01 T01701135  RH  011%=      5-min Rain = 0
KTA1 232105Z 29026KT 17/M14 A2995 RMK A01 T01691143  RH  011%=      5-min Rain = 0
KTA1 232106Z 29021G27KT 17/M14 A2996 RMK A01 T01661144  RH  011%=      5-min Rain = 0
KTA1 232107Z 29021G28KT 17/M14 A2996 RMK A01 T01651139  RH  011%=      5-min Rain = 0
KTA1 232108Z 29024G29KT 17/M14 A2995 RMK A01 T01661140  RH  011%=      5-min Rain = 0
KTA1 232109Z 30024G29KT 17/M13 A2996 RMK A01 T01661134  RH  012%=      5-min Rain = 0
KTA1 232110Z 30027G32KT 17/M13 A2995 RMK A01 T01651127  RH  012%=      5-min Rain = 0
KTA1 232111Z 30027G32KT 16/M13 A2995 RMK A01 T01641127  RH  012%=      5-min Rain = 0
KTA1 232112Z 30025G37KT 16/M13 A2996 RMK A01 T01641133  RH  012%=      5-min Rain = 0
KTA1 232113Z 30029KT 16/M13 A2995 RMK A01 T01631131  RH  012%=      5-min Rain = 0
KTA1 232114Z 31028G33KT 16/M13 A2996 RMK A01 T01611127  RH  013%=      5-min Rain = 0
KTA1 232115Z 31025G33KT 16/M13 A2996 RMK A01 T01601128  RH  013%=      5-min Rain = 0
KTA1 232116Z 30024G31KT 16/M12 A2996 RMK A01 T01611124  RH  013%=      5-min Rain = 0
KTA1 232117Z 30022G27KT 16/M13 A2996 RMK A01 T01641125  RH  013%=      5-min Rain = 0
KTA1 232118Z 30025G31KT 16/M13 A2996 RMK A01 T01631132  RH  012%=      5-min Rain = 0
KTA1 232119Z 31028KT 16/M13 A2996 RMK A01 T01621128  RH  012%=      5-min Rain = 0
KTA1 232120Z 31027KT 16/M13 A2996 RMK A01 T01621133  RH  012%=      5-min Rain = 0
KTA1 232121Z 30026G31KT 16/M13 A2996 RMK A01 T01601131  RH  012%=      5-min Rain = 0
KTA1 232122Z 30024KT 16/M13 A2997 RMK A01 T01601128  RH  013%=      5-min Rain = 0
KTA1 232123Z 29019G26KT 16/M12 A2997 RMK A01 T01601123  RH  013%=      5-min Rain = 0
KTA1 232124Z 29022KT 16/M12 A2997 RMK A01 T01621122  RH  013%=      5-min Rain = 0
KTA1 232125Z 31028G34KT 16/M12 A2996 RMK A01 T01621124  RH  013%=      5-min Rain = 0
KTA1 232126Z 30025KT 16/M13 A2997 RMK A01 T01611134  RH  012%=      5-min Rain = 0
KTA1 232127Z 30025G30KT 16/M13 A2997 RMK A01 T01611132  RH  012%=      5-min Rain = 0
KTA1 232128Z 30024G31KT 16/M13 A2997 RMK A01 T01621133  RH  012%=      5-min Rain = 0
KTA1 232129Z 29029KT 16/M14 A2997 RMK A01 T01631135  RH  012%=      5-min Rain = 0
KTA1 232130Z 29026G31KT 16/M14 A2997 RMK A01 T01621138  RH  011%=      5-min Rain = 0
KTA1 232131Z 29024G31KT 16/M14 A2997 RMK A01 T01611137  RH  012%=      5-min Rain = 0
KTA1 232132Z 30031KT 16/M13 A2997 RMK A01 T01611132  RH  012%=      5-min Rain = 0
KTA1 232133Z 30029KT 16/M13 A2997 RMK A01 T01591133  RH  012%=      5-min Rain = 0
KTA1 232134Z 30021G26KT 16/M13 A2997 RMK A01 T01581132  RH  012%=      5-min Rain = 0
KTA1 232135Z 30026G33KT 16/M13 A2997 RMK A01 T01591129  RH  013%=      5-min Rain = 0
KTA1 232136Z 29026KT 16/M13 A2997 RMK A01 T01601126  RH  013%=      5-min Rain = 0
KTA1 232137Z 29026G32KT 16/M12 A2997 RMK A01 T01591124  RH  013%=      5-min Rain = 0
KTA1 232138Z 29023G28KT 16/M12 A2997 RMK A01 T01591124  RH  013%=      5-min Rain = 0
KTA1 232139Z 30025G32KT 16/M12 A2997 RMK A01 T01591123  RH  013%=      5-min Rain = 0
KTA1 232140Z 30028G33KT 16/M13 A2997 RMK A01 T01601125  RH  013%=      5-min Rain = 0
KTA1 232141Z 30024KT 16/M13 A2997 RMK A01 T01591128  RH  013%=      5-min Rain = 0
KTA1 232142Z 30021KT 16/M13 A2998 RMK A01 T01591125  RH  013%=      5-min Rain = 0
KTA1 232143Z 29019G27KT 16/M12 A2998 RMK A01 T01611121  RH  013%=      5-min Rain = 0
KTA1 232144Z 31023KT 16/M12 A2997 RMK A01 T01631122  RH  013%=      5-min Rain = 0
KTA1 232145Z 30024G29KT 16/M12 A2998 RMK A01 T01611124  RH  013%=      5-min Rain = 0
KTA1 232146Z 30021G30KT 16/M13 A2997 RMK A01 T01601130  RH  012%=      5-min Rain = 0
KTA1 232147Z 29021KT 16/M13 A2998 RMK A01 T01611132  RH  012%=      5-min Rain = 0
KTA1 232148Z 29021G28KT 16/M13 A2997 RMK A01 T01621132  RH  012%=      5-min Rain = 0
KTA1 232149Z 30025G34KT 16/M13 A2997 RMK A01 T01621129  RH  012%=      5-min Rain = 0
KTA1 232150Z 30028G33KT 16/M13 A2997 RMK A01 T01611131  RH  012%=      5-min Rain = 0
KTA1 232151Z 30027G33KT 16/M13 A2997 RMK A01 T01591133  RH  012%=      5-min Rain = 0
KTA1 232152Z 30026G34KT 16/M13 A2997 RMK A01 T01581133  RH  012%=      5-min Rain = 0
KTA1 232153Z 30022G28KT 16/M13 A2998 RMK A01 T01581134  RH  012%=      5-min Rain = 0
KTA1 232154Z 30023KT 16/M13 A2998 RMK A01 T01591130  RH  012%=      5-min Rain = 0
KTA1 232155Z 30023KT 16/M13 A2998 RMK A01 T01601130  RH  012%=      5-min Rain = 0
KTA1 232156Z 30021G28KT 16/M13 A2998 RMK A01 T01611130  RH  012%=      5-min Rain = 0
KTA1 232157Z 30025KT 16/M13 A2998 RMK A01 T01631129  RH  012%=      5-min Rain = 0
KTA1 232158Z 29025G30KT 16/M13 A2998 RMK A01 T01631132  RH  012%=      5-min Rain = 0
KTA1 232159Z 30027G34KT 16/M14 A2997 RMK A01 T01611135  RH  012%=      5-min Rain = 0
KTA1 232200Z 30022G29KT 16/M14 A2998 RMK A01 T01591135  RH  012%=      5-min Rain = 0
KTA1 232201Z 30026KT 16/M13 A2998 RMK A01 T01591132  RH  012%=      5-min Rain = 0
KTA1 232202Z 30025KT 16/M13 A2998 RMK A01 T01591132  RH  012%=      5-min Rain = 0
KTA1 232203Z 30025KT 16/M13 A2998 RMK A01 T01581129  RH  013%=      5-min Rain = 0
KTA1 232204Z 29021G26KT 16/M13 A2998 RMK A01 T01571127  RH  013%=      5-min Rain = 0
KTA1 232205Z 31021KT 16/M12 A2998 RMK A01 T01591122  RH  013%=      5-min Rain = 0
KTA1 232206Z 31022KT 16/M12 A2998 RMK A01 T01601123  RH  013%=      5-min Rain = 0
KTA1 232207Z 31022G30KT 16/M12 A2998 RMK A01 T01601122  RH  013%=      5-min Rain = 0
KTA1 232208Z 30023G29KT 16/M13 A2998 RMK A01 T01591125  RH  013%=      5-min Rain = 0
KTA1 232209Z 29025KT 16/M13 A2998 RMK A01 T01591128  RH  013%=      5-min Rain = 0
KTA1 232210Z 30023KT 16/M13 A2998 RMK A01 T01591131  RH  012%=      5-min Rain = 0
KTA1 232211Z 30022G28KT 16/M13 A2998 RMK A01 T01591128  RH  013%=      5-min Rain = 0
KTA1 232212Z 30021G26KT 16/M12 A2998 RMK A01 T01611121  RH  013%=      5-min Rain = 0
KTA1 232213Z 29025KT 16/M12 A2998 RMK A01 T01621122  RH  013%=      5-min Rain = 0
KTA1 232214Z 29025G30KT 16/M13 A2998 RMK A01 T01611131  RH  012%=      5-min Rain = 0
KTA1 232215Z 30022G27KT 16/M13 A2998 RMK A01 T01591133  RH  012%=      5-min Rain = 0
KTA1 232216Z 30022G29KT 16/M13 A2998 RMK A01 T01581132  RH  012%=      5-min Rain = 0
KTA1 232217Z 29020G27KT 16/M13 A2999 RMK A01 T01581128  RH  013%=      5-min Rain = 0
KTA1 232218Z 30018KT 16/M13 A2999 RMK A01 T01591125  RH  013%=      5-min Rain = 0
KTA1 232219Z 30022KT 16/M13 A2999 RMK A01 T01611125  RH  013%=      5-min Rain = 0
KTA1 232220Z 30020KT 16/M13 A2999 RMK A01 T01611130  RH  012%=      5-min Rain = 0
KTA1 232221Z 31021KT 16/M13 A2999 RMK A01 T01611129  RH  012%=      5-min Rain = 0
KTA1 232222Z 30020KT 16/M13 A2999 RMK A01 T01611129  RH  012%=      5-min Rain = 0
KTA1 232223Z 30025KT 16/M12 A2999 RMK A01 T01611124  RH  013%=      5-min Rain = 0
KTA1 232224Z 30023G28KT 16/M12 A2999 RMK A01 T01601123  RH  013%=      5-min Rain = 0
KTA1 232225Z 30026KT 16/M12 A2999 RMK A01 T01581123  RH  013%=      5-min Rain = 0
KTA1 232226Z 30023G28KT 16/M12 A2999 RMK A01 T01571121  RH  014%=      5-min Rain = 0
KTA1 232227Z 30019G25KT 16/M12 A2999 RMK A01 T01571118  RH  014%=      5-min Rain = 0
KTA1 232228Z 30023KT 16/M12 A2999 RMK A01 T01601115  RH  014%=      5-min Rain = 0
KTA1 232229Z 30021KT 16/M12 A2999 RMK A01 T01591117  RH  014%=      5-min Rain = 0
KTA1 232230Z 31022G27KT 16/M12 A2999 RMK A01 T01581120  RH  014%=      5-min Rain = 0
KTA1 232231Z 31020KT 16/M12 A2999 RMK A01 T01581118  RH  014%=      5-min Rain = 0
KTA1 232232Z 30024G32KT 16/M12 A30 RMK A01 T01581118  RH  014%=      5-min Rain = 0
KTA1 232233Z 30028KT 16/M13 A2999 RMK A01 T01571127  RH  013%=      5-min Rain = 0
KTA1 232234Z 30025KT 16/M13 A2999 RMK A01 T01571131  RH  013%=      5-min Rain = 0
KTA1 232235Z 30026KT 16/M13 A30 RMK A01 T01561129  RH  013%=      5-min Rain = 0
KTA1 232236Z 29023KT 16/M13 A30 RMK A01 T01571130  RH  013%=      5-min Rain = 0
KTA1 232237Z 29022KT 16/M13 A30 RMK A01 T01561126  RH  013%=      5-min Rain = 0
KTA1 232238Z 30020G26KT 16/M12 A30 RMK A01 T01561122  RH  014%=      5-min Rain = 0
KTA1 232239Z 31024KT 16/M12 A30 RMK A01 T01571122  RH  013%=      5-min Rain = 0
KTA1 232240Z 30023KT 16/M13 A30 RMK A01 T01571126  RH  013%=      5-min Rain = 0
KTA1 232241Z 30022KT 16/M13 A30 RMK A01 T01571126  RH  013%=      5-min Rain = 0
KTA1 232242Z 30020KT 16/M13 A3001 RMK A01 T01571125  RH  013%=      5-min Rain = 0
KTA1 232243Z 31020KT 16/M12 A30 RMK A01 T01571123  RH  013%=      5-min Rain = 0
KTA1 232244Z 30020G27KT 16/M12 A30 RMK A01 T01571119  RH  014%=      5-min Rain = 0
KTA1 232245Z 31023KT 16/M12 A3001 RMK A01 T01581117  RH  014%=      5-min Rain = 0
KTA1 232246Z 30021G27KT 16/M12 A3001 RMK A01 T01571118  RH  014%=      5-min Rain = 0
KTA1 232247Z 30019G29KT 16/M12 A3001 RMK A01 T01561119  RH  014%=      5-min Rain = 0
KTA1 232248Z 30022G27KT 16/M12 A3001 RMK A01 T01571118  RH  014%=      5-min Rain = 0
KTA1 232249Z 30023G28KT 16/M12 A3001 RMK A01 T01561118  RH  014%=      5-min Rain = 0
KTA1 232250Z 29025KT 16/M12 A3001 RMK A01 T01561118  RH  014%=      5-min Rain = 0
KTA1 232251Z 30024KT 15/M12 A3001 RMK A01 T01541120  RH  014%=      5-min Rain = 0
KTA1 232252Z 30021KT 15/M12 A3001 RMK A01 T01541119  RH  014%=      5-min Rain = 0
KTA1 232253Z 30025KT 15/M12 A3001 RMK A01 T01531120  RH  014%=      5-min Rain = 0
KTA1 232254Z 29021KT 15/M12 A3001 RMK A01 T01531123  RH  014%=      5-min Rain = 0
KTA1 232255Z 30019G25KT 15/M12 A3001 RMK A01 T01531123  RH  014%=      5-min Rain = 0
KTA1 232256Z 30017KT 16/M12 A3001 RMK A01 T01561120  RH  014%=      5-min Rain = 0
KTA1 232257Z 30022KT 16/M12 A3001 RMK A01 T01571122  RH  014%=      5-min Rain = 0
KTA1 232258Z 30018G23KT 16/M12 A3001 RMK A01 T01551123  RH  014%=      5-min Rain = 0
KTA1 232259Z 30021KT 16/M12 A3001 RMK A01 T01551121  RH  014%=      5-min Rain = 0
KTA1 232300Z 30019KT 16/M12 A3001 RMK A01 T01551118  RH  014%=      5-min Rain = 0
KTA1 232301Z 30020KT 16/M12 A3001 RMK A01 T01551115  RH  014%=      5-min Rain = 0
KTA1 232302Z 30017KT 16/M11 A3001 RMK A01 T01551114  RH  015%=      5-min Rain = 0
KTA1 232303Z 30018G23KT 16/M11 A3002 RMK A01 T01551113  RH  015%=      5-min Rain = 0
KTA1 232304Z 31018KT 16/M11 A3002 RMK A01 T01551113  RH  015%=      5-min Rain = 0
KTA1 232305Z 30019G24KT 15/M11 A3002 RMK A01 T01541113  RH  015%=      5-min Rain = 0
KTA1 232306Z 30016G21KT 15/M11 A3002 RMK A01 T01541113  RH  015%=      5-min Rain = 0
KTA1 232307Z 30019KT 15/M11 A3002 RMK A01 T01541113  RH  015%=      5-min Rain = 0
KTA1 232308Z 31020KT 15/M11 A3002 RMK A01 T01541114  RH  015%=      5-min Rain = 0
KTA1 232309Z 31022KT 15/M12 A3002 RMK A01 T01531116  RH  014%=      5-min Rain = 0
KTA1 232310Z 31021KT 15/M12 A3002 RMK A01 T01531116  RH  015%=      5-min Rain = 0
KTA1 232311Z 30018G23KT 15/M12 A3002 RMK A01 T01531115  RH  015%=      5-min Rain = 0
KTA1 232312Z 31019KT 15/M12 A3002 RMK A01 T01531115  RH  015%=      5-min Rain = 0
KTA1 232313Z 30017KT 15/M12 A3002 RMK A01 T01531115  RH  015%=      5-min Rain = 0
KTA1 232314Z 29017KT 15/M12 A3002 RMK A01 T01521115  RH  015%=      5-min Rain = 0
KTA1 232315Z 30017G23KT 15/M11 A3002 RMK A01 T01531114  RH  015%=      5-min Rain = 0
KTA1 232316Z 30022KT 15/M12 A3002 RMK A01 T01521115  RH  015%=      5-min Rain = 0
KTA1 232317Z 31021KT 15/M11 A3002 RMK A01 T01521114  RH  015%=      5-min Rain = 0
KTA1 232318Z 31023KT 15/M12 A3002 RMK A01 T01521115  RH  015%=      5-min Rain = 0
KTA1 232319Z 31019KT 15/M12 A3002 RMK A01 T01511116  RH  015%=      5-min Rain = 0
KTA1 232320Z 31019G24KT 15/M12 A3002 RMK A01 T01511115  RH  015%=      5-min Rain = 0
KTA1 232321Z 30017KT 15/M12 A3002 RMK A01 T01511115  RH  015%=      5-min Rain = 0
KTA1 232322Z 30018KT 15/M11 A3002 RMK A01 T01511114  RH  015%=      5-min Rain = 0
KTA1 232323Z 30016KT 15/M11 A3002 RMK A01 T01511114  RH  015%=      5-min Rain = 0
KTA1 232324Z 30017KT 15/M11 A3002 RMK A01 T01521112  RH  015%=      5-min Rain = 0
KTA1 232325Z 30017KT 15/M11 A3002 RMK A01 T01521112  RH  015%=      5-min Rain = 0
KTA1 232326Z 30020KT 15/M11 A3002 RMK A01 T01521113  RH  015%=      5-min Rain = 0
KTA1 232327Z 30017KT 15/M11 A3002 RMK A01 T01521114  RH  015%=      5-min Rain = 0
KTA1 232328Z 30016KT 15/M11 A3002 RMK A01 T01511113  RH  015%=      5-min Rain = 0
KTA1 232329Z 30015KT 15/M11 A3002 RMK A01 T01511113  RH  015%=      5-min Rain = 0
KTA1 232330Z 30015KT 15/M11 A3002 RMK A01 T01511112  RH  015%=      5-min Rain = 0
KTA1 232331Z 31016KT 15/M11 A3002 RMK A01 T01511113  RH  015%=      5-min Rain = 0
KTA1 232332Z 29016G21KT 15/M11 A3002 RMK A01 T01511114  RH  015%=      5-min Rain = 0
KTA1 232333Z 30019KT 15/M12 A3002 RMK A01 T01501116  RH  015%=      5-min Rain = 0
KTA1 232334Z 30019KT 15/M12 A3002 RMK A01 T01501116  RH  015%=      5-min Rain = 0
KTA1 232335Z 30018KT 15/M12 A3002 RMK A01 T01511115  RH  015%=      5-min Rain = 0
KTA1 232336Z 30018KT 15/M12 A3002 RMK A01 T01501116  RH  015%=      5-min Rain = 0
KTA1 232337Z 30017KT 15/M12 A3002 RMK A01 T01501117  RH  015%=      5-min Rain = 0
KTA1 232338Z 30016KT 15/M12 A3002 RMK A01 T01501116  RH  015%=      5-min Rain = 0
KTA1 232339Z 30017KT 15/M12 A3002 RMK A01 T01501116  RH  015%=      5-min Rain = 0
KTA1 232340Z 30015KT 15/M12 A3003 RMK A01 T01501115  RH  015%=      5-min Rain = 0
KTA1 232341Z 29017KT 15/M12 A3003 RMK A01 T01491116  RH  015%=      5-min Rain = 0
KTA1 232342Z 30016KT 15/M12 A3003 RMK A01 T01491116  RH  015%=      5-min Rain = 0
KTA1 232343Z 30018KT 15/M12 A3003 RMK A01 T01491117  RH  015%=      5-min Rain = 0
KTA1 232344Z 30017KT 15/M12 A3003 RMK A01 T01491117  RH  015%=      5-min Rain = 0
KTA1 232345Z 30016KT 15/M12 A3003 RMK A01 T01481117  RH  015%=      5-min Rain = 0
KTA1 232346Z 30015KT 15/M11 A3003 RMK A01 T01481114  RH  015%=      5-min Rain = 0
KTA1 232347Z 31016KT 15/M11 A3003 RMK A01 T01481113  RH  015%=      5-min Rain = 0
KTA1 232348Z 30014KT 15/M11 A3003 RMK A01 T01481112  RH  015%=      5-min Rain = 0
KTA1 232349Z 31014KT 15/M11 A3003 RMK A01 T01471113  RH  016%=      5-min Rain = 0
KTA1 232350Z 31016KT 15/M11 A3003 RMK A01 T01471112  RH  016%=      5-min Rain = 0
KTA1 232351Z 31013KT 15/M11 A3003 RMK A01 T01461112  RH  016%=      5-min Rain = 0
KTA1 232352Z 31014KT 15/M11 A3003 RMK A01 T01471110  RH  016%=      5-min Rain = 0
KTA1 232353Z 30013KT 15/M11 A3003 RMK A01 T01461112  RH  016%=      5-min Rain = 0
KTA1 232354Z 30019KT 15/M11 A3003 RMK A01 T01461113  RH  016%=      5-min Rain = 0
KTA1 232355Z 30015KT 15/M12 A3003 RMK A01 T01451115  RH  015%=      5-min Rain = 0
KTA1 232356Z 30013KT 15/M11 A3003 RMK A01 T01451114  RH  016%=      5-min Rain = 0
KTA1 232357Z 30015KT 15/M11 A3003 RMK A01 T01451114  RH  016%=      5-min Rain = 0
KTA1 232358Z 30015KT 14/M12 A3003 RMK A01 T01441115  RH  015%=      5-min Rain = 0
KTA1 232359Z 30014KT 14/M12 A3003 RMK A01 T01441115  RH  016%=      5-min Rain = 0
KTA1 240000Z 30014KT 14/M11 A3003 RMK A01 T01441114  RH  016%=      5-min Rain = 0
KTA1 240001Z 30016KT 14/M11 A3003 RMK A01 T01431114  RH  016%=      5-min Rain = 0
KTA1 240002Z 30015KT 14/M12 A3003 RMK A01 T01431115  RH  016%=      5-min Rain = 0
KTA1 240003Z 30015KT 14/M12 A3003 RMK A01 T01431115  RH  016%=      5-min Rain = 0
KTA1 240004Z 30013KT 14/M11 A3004 RMK A01 T01431114  RH  016%=      5-min Rain = 0
KTA1 240005Z 30015KT 14/M11 A3004 RMK A01 T01421114  RH  016%=      5-min Rain = 0
KTA1 240006Z 30015KT 14/M12 A3004 RMK A01 T01421115  RH  016%=      5-min Rain = 0
KTA1 240007Z 31015KT 14/M12 A3004 RMK A01 T01421115  RH  016%=      5-min Rain = 0
KTA1 240008Z 30015KT 14/M12 A3004 RMK A01 T01411116  RH  016%=      5-min Rain = 0
KTA1 240009Z 30015KT 14/M12 A3004 RMK A01 T01411116  RH  016%=      5-min Rain = 0
KTA1 240010Z 30013KT 14/M12 A3004 RMK A01 T01411115  RH  016%=      5-min Rain = 0
KTA1 240011Z 30014KT 14/M12 A3004 RMK A01 T01401115  RH  016%=      5-min Rain = 0
KTA1 240012Z 30012KT 14/M12 A3004 RMK A01 T01401115  RH  016%=      5-min Rain = 0
KTA1 240013Z 30013KT 14/M11 A3004 RMK A01 T01391114  RH  016%=      5-min Rain = 0
KTA1 240014Z 30014KT 14/M12 A3004 RMK A01 T01381115  RH  016%=      5-min Rain = 0
KTA1 240015Z 30012KT 14/M12 A3004 RMK A01 T01381115  RH  016%=      5-min Rain = 0
KTA1 240016Z 30012KT 14/M11 A3004 RMK A01 T01381114  RH  016%=      5-min Rain = 0
KTA1 240017Z 30014KT 14/M11 A3004 RMK A01 T01371114  RH  016%=      5-min Rain = 0
KTA1 240018Z 30011KT 14/M11 A3004 RMK A01 T01371114  RH  016%=      5-min Rain = 0
KTA1 240019Z 30010KT 14/M11 A3005 RMK A01 T01361114  RH  016%=      5-min Rain = 0
KTA1 240020Z 30011KT 14/M11 A3005 RMK A01 T01361114  RH  017%=      5-min Rain = 0
KTA1 240021Z 30012KT 14/M11 A3005 RMK A01 T01351114  RH  017%=      5-min Rain = 0
KTA1 240022Z 30012KT 14/M11 A3005 RMK A01 T01351113  RH  017%=      5-min Rain = 0
KTA1 240023Z 30011KT 13/M11 A3005 RMK A01 T01341113  RH  017%=      5-min Rain = 0
KTA1 240024Z 30011KT 13/M11 A3005 RMK A01 T01341112  RH  017%=      5-min Rain = 0
KTA1 240025Z 30010KT 13/M11 A3005 RMK A01 T01331111  RH  017%=      5-min Rain = 0
KTA1 240026Z 30010KT 13/M11 A3005 RMK A01 T01331111  RH  017%=      5-min Rain = 0
KTA1 240027Z 30010KT 13/M11 A3005 RMK A01 T01321111  RH  017%=      5-min Rain = 0
KTA1 240028Z 30011KT 13/M11 A3005 RMK A01 T01311111  RH  017%=      5-min Rain = 0
KTA1 240029Z 30010KT 13/M11 A3005 RMK A01 T01311111  RH  017%=      5-min Rain = 0
KTA1 240030Z 30010KT 13/M11 A3005 RMK A01 T01301111  RH  017%=      5-min Rain = 0
KTA1 240031Z 30010KT 13/M11 A3005 RMK A01 T01291112  RH  017%=      5-min Rain = 0
KTA1 240032Z 30012KT 13/M11 A3005 RMK A01 T01291113  RH  017%=      5-min Rain = 0
KTA1 240033Z 30010KT 13/M11 A3005 RMK A01 T01291114  RH  017%=      5-min Rain = 0
KTA1 240034Z 30010KT 13/M12 A3005 RMK A01 T01281115  RH  017%=      5-min Rain = 0
KTA1 240035Z 30010KT 13/M12 A3005 RMK A01 T01271115  RH  017%=      5-min Rain = 0
KTA1 240036Z 30009KT 13/M12 A3005 RMK A01 T01261115  RH  017%=      5-min Rain = 0
KTA1 240037Z 30009KT 13/M12 A3005 RMK A01 T01251115  RH  018%=      5-min Rain = 0
KTA1 240038Z 30009KT 12/M12 A3005 RMK A01 T01231115  RH  018%=      5-min Rain = 0
KTA1 240039Z 30009KT 12/M11 A3005 RMK A01 T01231114  RH  018%=      5-min Rain = 0
KTA1 240040Z 30009KT 12/M11 A3005 RMK A01 T01221114  RH  018%=      5-min Rain = 0
KTA1 240041Z 30009KT 12/M11 A3005 RMK A01 T01221114  RH  018%=      5-min Rain = 0
KTA1 240042Z 30009KT 12/M11 A3005 RMK A01 T01221114  RH  018%=      5-min Rain = 0
KTA1 240043Z 29009KT 12/M11 A3005 RMK A01 T01211113  RH  018%=      5-min Rain = 0
KTA1 240044Z 30009KT 12/M11 A3005 RMK A01 T01201113  RH  018%=      5-min Rain = 0
KTA1 240045Z 30009KT 12/M11 A3005 RMK A01 T01191114  RH  018%=      5-min Rain = 0
KTA1 240046Z 30009KT 12/M11 A3005 RMK A01 T01181113  RH  019%=      5-min Rain = 0
KTA1 240047Z 30009KT 12/M11 A3005 RMK A01 T01171114  RH  019%=      5-min Rain = 0
KTA1 240048Z 30009KT 12/M11 A3005 RMK A01 T01171114  RH  019%=      5-min Rain = 0
KTA1 240049Z 30009KT 12/M11 A3005 RMK A01 T01171114  RH  019%=      5-min Rain = 0
KTA1 240050Z 30009KT 12/M11 A3006 RMK A01 T01161114  RH  019%=      5-min Rain = 0
KTA1 240051Z 30008KT 12/M11 A3006 RMK A01 T01151114  RH  019%=      5-min Rain = 0
KTA1 240052Z 30008KT 11/M12 A3006 RMK A01 T01141115  RH  019%=      5-min Rain = 0
KTA1 240053Z 30009KT 11/M12 A3006 RMK A01 T01131115  RH  019%=      5-min Rain = 0
KTA1 240054Z 30008KT 11/M12 A3006 RMK A01 T01131115  RH  019%=      5-min Rain = 0
KTA1 240055Z 30008KT 11/M12 A3006 RMK A01 T01121115  RH  019%=      5-min Rain = 0
KTA1 240056Z 30008KT 11/M11 A3006 RMK A01 T01111114  RH  019%=      5-min Rain = 0
KTA1 240057Z 29008KT 11/M12 A3006 RMK A01 T01091116  RH  019%=      5-min Rain = 0
KTA1 240058Z 30008KT 11/M12 A3006 RMK A01 T01081116  RH  020%=      5-min Rain = 0
KTA1 240059Z 30008KT 11/M12 A3006 RMK A01 T01081116  RH  020%=      5-min Rain = 0
KTA1 240100Z 30008KT 11/M12 A3006 RMK A01 T01071116  RH  020%=      5-min Rain = 0
KTA1 240101Z 29008KT 11/M12 A3006 RMK A01 T01071116  RH  020%=      5-min Rain = 0
KTA1 240102Z 30008KT 11/M12 A3006 RMK A01 T01061116  RH  020%=      5-min Rain = 0
KTA1 240103Z 30008KT 11/M12 A3006 RMK A01 T01051117  RH  020%=      5-min Rain = 0
KTA1 240104Z 29008KT 11/M12 A3006 RMK A01 T01051116  RH  020%=      5-min Rain = 0
KTA1 240105Z 30008KT 10/M12 A3006 RMK A01 T01041117  RH  020%=      5-min Rain = 0
KTA1 240106Z 30008KT 10/M12 A3006 RMK A01 T01041117  RH  020%=      5-min Rain = 0
KTA1 240107Z 30008KT 10/M12 A3006 RMK A01 T01031117  RH  020%=      5-min Rain = 0
KTA1 240108Z 29007KT 10/M12 A3006 RMK A01 T01021118  RH  020%=      5-min Rain = 0
KTA1 240109Z 29007KT 10/M12 A3006 RMK A01 T01021118  RH  020%=      5-min Rain = 0
KTA1 240110Z 29007KT 10/M12 A3006 RMK A01 T01021118  RH  020%=      5-min Rain = 0
KTA1 240111Z 29007KT 10/M12 A3006 RMK A01 T01011118  RH  020%=      5-min Rain = 0
KTA1 240112Z 30008KT 10/M12 A3006 RMK A01 T01001118  RH  020%=      5-min Rain = 0
KTA1 240113Z 30008KT 10/M12 A3006 RMK A01 T00991118  RH  020%=      5-min Rain = 0
KTA1 240114Z 30008KT 10/M12 A3006 RMK A01 T00981118  RH  020%=      5-min Rain = 0
KTA1 240115Z 30007KT 10/M12 A3006 RMK A01 T00981118  RH  021%=      5-min Rain = 0
KTA1 240116Z 30007KT 10/M12 A3006 RMK A01 T00971118  RH  021%=      5-min Rain = 0
KTA1 240117Z 30008KT 10/M12 A3006 RMK A01 T00961118  RH  021%=      5-min Rain = 0
KTA1 240118Z 30008KT 10/M12 A3006 RMK A01 T00961118  RH  021%=      5-min Rain = 0
KTA1 240119Z 30007KT 10/M12 A3006 RMK A01 T00951118  RH  021%=      5-min Rain = 0
KTA1 240120Z 30007KT 10/M12 A3006 RMK A01 T00951118  RH  021%=      5-min Rain = 0
KTA1 240121Z 30007KT 10/M12 A3006 RMK A01 T00951118  RH  021%=      5-min Rain = 0
KTA1 240122Z 30007KT 09/M12 A3007 RMK A01 T00941118  RH  021%=      5-min Rain = 0
KTA1 240123Z 30007KT 09/M12 A3007 RMK A01 T00931118  RH  021%=      5-min Rain = 0
KTA1 240124Z 30007KT 09/M12 A3007 RMK A01 T00931118  RH  021%=      5-min Rain = 0
KTA1 240125Z 30007KT 09/M12 A3007 RMK A01 T00921118  RH  021%=      5-min Rain = 0
KTA1 240126Z 30007KT 09/M12 A3007 RMK A01 T00911118  RH  021%=      5-min Rain = 0
KTA1 240127Z 30006KT 09/M12 A3007 RMK A01 T00911118  RH  022%=      5-min Rain = 0
KTA1 240128Z 30006KT 09/M12 A3007 RMK A01 T00901117  RH  022%=      5-min Rain = 0
KTA1 240129Z 30006KT 09/M12 A3007 RMK A01 T00891118  RH  022%=      5-min Rain = 0
KTA1 240130Z 30007KT 09/M12 A3007 RMK A01 T00881118  RH  022%=      5-min Rain = 0
KTA1 240131Z 30007KT 09/M12 A3007 RMK A01 T00881117  RH  022%=      5-min Rain = 0
KTA1 240132Z 30007KT 09/M12 A3007 RMK A01 T00871117  RH  022%=      5-min Rain = 0
KTA1 240133Z 30007KT 09/M12 A3007 RMK A01 T00861117  RH  022%=      5-min Rain = 0
KTA1 240134Z 30007KT 08/M12 A3007 RMK A01 T00841117  RH  023%=      5-min Rain = 0
KTA1 240135Z 30007KT 08/M12 A3007 RMK A01 T00831118  RH  023%=      5-min Rain = 0
KTA1 240136Z 30007KT 08/M12 A3007 RMK A01 T00831117  RH  023%=      5-min Rain = 0
KTA1 240137Z 30007KT 08/M12 A3007 RMK A01 T00821117  RH  023%=      5-min Rain = 0
KTA1 240138Z 29008KT 08/M12 A3007 RMK A01 T00821117  RH  023%=      5-min Rain = 0
KTA1 240139Z 29007KT 08/M12 A3007 RMK A01 T00821117  RH  023%=      5-min Rain = 0
KTA1 240140Z 29007KT 08/M12 A3008 RMK A01 T00821117  RH  023%=      5-min Rain = 0
KTA1 240141Z 29007KT 08/M12 A3008 RMK A01 T00811117  RH  023%=      5-min Rain = 0
KTA1 240142Z 29008KT 08/M12 A3008 RMK A01 T00801117  RH  023%=      5-min Rain = 0
KTA1 240143Z 29008KT 08/M12 A3008 RMK A01 T00801117  RH  023%=      5-min Rain = 0
KTA1 240144Z 29009KT 08/M12 A3008 RMK A01 T00801117  RH  023%=      5-min Rain = 0
KTA1 240145Z 29009KT 08/M12 A3008 RMK A01 T00811116  RH  023%=      5-min Rain = 0
KTA1 240146Z 29009KT 08/M12 A3008 RMK A01 T00811116  RH  023%=      5-min Rain = 0
KTA1 240147Z 29010KT 08/M12 A3008 RMK A01 T00821116  RH  023%=      5-min Rain = 0
KTA1 240148Z 29010KT 08/M12 A3008 RMK A01 T00841116  RH  023%=      5-min Rain = 0
KTA1 240149Z 29010KT 09/M12 A3008 RMK A01 T00851117  RH  023%=      5-min Rain = 0
KTA1 240150Z 29009KT 09/M12 A3008 RMK A01 T00861117  RH  022%=      5-min Rain = 0
KTA1 240151Z 29009KT 09/M12 A3008 RMK A01 T00871118  RH  022%=      5-min Rain = 0
KTA1 240152Z 29010KT 09/M12 A3008 RMK A01 T00881118  RH  022%=      5-min Rain = 0
KTA1 240153Z 30010KT 09/M12 A3008 RMK A01 T00871119  RH  022%=      5-min Rain = 0
KTA1 240154Z 30010KT 09/M12 A3008 RMK A01 T00871119  RH  022%=      5-min Rain = 0
KTA1 240155Z 30010KT 09/M12 A3008 RMK A01 T00881119  RH  022%=      5-min Rain = 0
KTA1 240156Z 30009KT 09/M12 A3008 RMK A01 T00881119  RH  022%=      5-min Rain = 0
KTA1 240157Z 30009KT 09/M12 A3008 RMK A01 T00891119  RH  022%=      5-min Rain = 0
KTA1 240158Z 30010KT 09/M12 A3008 RMK A01 T00891118  RH  022%=      5-min Rain = 0
KTA1 240159Z 29010KT 09/M12 A3008 RMK A01 T00881119  RH  022%=      5-min Rain = 0
KTA1 240200Z 29010KT 09/M12 A3008 RMK A01 T00881118  RH  022%=      5-min Rain = 0
KTA1 240201Z 29009KT 09/M12 A3008 RMK A01 T00871118  RH  022%=      5-min Rain = 0
KTA1 240202Z 29009KT 09/M12 A3008 RMK A01 T00871117  RH  022%=      5-min Rain = 0
KTA1 240203Z 29010KT 09/M12 A3009 RMK A01 T00871117  RH  022%=      5-min Rain = 0
KTA1 240204Z 29010KT 09/M12 A3009 RMK A01 T00861117  RH  022%=      5-min Rain = 0
KTA1 240205Z 29009KT 09/M12 A3009 RMK A01 T00861117  RH  022%=      5-min Rain = 0
KTA1 240206Z 29009KT 09/M12 A3009 RMK A01 T00861117  RH  022%=      5-min Rain = 0
KTA1 240207Z 29009KT 09/M12 A3009 RMK A01 T00861118  RH  022%=      5-min Rain = 0
KTA1 240208Z 28009KT 09/M12 A3009 RMK A01 T00861117  RH  022%=      5-min Rain = 0
KTA1 240209Z 28008KT 09/M12 A3009 RMK A01 T00861118  RH  022%=      5-min Rain = 0
KTA1 240210Z 28008KT 09/M12 A3009 RMK A01 T00861117  RH  022%=      5-min Rain = 0
KTA1 240211Z 28008KT 09/M12 A3009 RMK A01 T00861117  RH  023%=      5-min Rain = 0
KTA1 240212Z 28008KT 09/M12 A3009 RMK A01 T00851117  RH  023%=      5-min Rain = 0
KTA1 240213Z 28008KT 08/M12 A3009 RMK A01 T00841117  RH  023%=      5-min Rain = 0
KTA1 240214Z 28008KT 08/M12 A301 RMK A01 T00841117  RH  023%=      5-min Rain = 0
KTA1 240215Z 28008KT 08/M12 A301 RMK A01 T00831118  RH  023%=      5-min Rain = 0
KTA1 240216Z 28008KT 08/M12 A301 RMK A01 T00811117  RH  023%=      5-min Rain = 0
KTA1 240217Z 28009KT 08/M12 A301 RMK A01 T00801117  RH  023%=      5-min Rain = 0
KTA1 240218Z 28009KT 08/M12 A301 RMK A01 T00791117  RH  024%=      5-min Rain = 0
KTA1 240219Z 28009KT 08/M12 A301 RMK A01 T00781117  RH  024%=      5-min Rain = 0
KTA1 240220Z 28009KT 08/M12 A301 RMK A01 T00771117  RH  024%=      5-min Rain = 0
KTA1 240221Z 28009KT 08/M12 A301 RMK A01 T00771116  RH  024%=      5-min Rain = 0
KTA1 240222Z 28009KT 08/M12 A301 RMK A01 T00761116  RH  024%=      5-min Rain = 0
KTA1 240223Z 28008KT 08/M12 A301 RMK A01 T00751116  RH  024%=      5-min Rain = 0
KTA1 240224Z 28007KT 07/M12 A301 RMK A01 T00741116  RH  024%=      5-min Rain = 0
KTA1 240225Z 28007KT 07/M12 A301 RMK A01 T00731117  RH  024%=      5-min Rain = 0
KTA1 240226Z 28008KT 07/M12 A301 RMK A01 T00721117  RH  025%=      5-min Rain = 0
KTA1 240227Z 28008KT 07/M12 A3011 RMK A01 T00711117  RH  025%=      5-min Rain = 0
KTA1 240228Z 28008KT 07/M12 A3011 RMK A01 T00691118  RH  025%=      5-min Rain = 0
KTA1 240229Z 28008KT 07/M12 A3011 RMK A01 T00681118  RH  025%=      5-min Rain = 0
KTA1 240230Z 28008KT 07/M12 A3011 RMK A01 T00681118  RH  025%=      5-min Rain = 0
KTA1 240231Z 28008KT 07/M12 A3011 RMK A01 T00671118  RH  025%=      5-min Rain = 0
KTA1 240232Z 28009KT 07/M12 A3011 RMK A01 T00671118  RH  025%=      5-min Rain = 0
KTA1 240233Z 29008KT 07/M12 A3011 RMK A01 T00671118  RH  025%=      5-min Rain = 0
KTA1 240234Z 29008KT 07/M12 A3011 RMK A01 T00671119  RH  025%=      5-min Rain = 0
KTA1 240235Z 29008KT 07/M12 A3011 RMK A01 T00671118  RH  025%=      5-min Rain = 0
KTA1 240236Z 29008KT 07/M12 A3012 RMK A01 T00681118  RH  025%=      5-min Rain = 0
KTA1 240237Z 29008KT 07/M12 A3012 RMK A01 T00681118  RH  025%=      5-min Rain = 0
KTA1 240238Z 29008KT 07/M12 A3012 RMK A01 T00691118  RH  025%=      5-min Rain = 0
KTA1 240239Z 29008KT 07/M12 A3012 RMK A01 T00701118  RH  025%=      5-min Rain = 0
KTA1 240240Z 29007KT 07/M12 A3012 RMK A01 T00701119  RH  025%=      5-min Rain = 0
KTA1 240241Z 29007KT 07/M12 A3012 RMK A01 T00701119  RH  025%=      5-min Rain = 0
KTA1 240242Z 29007KT 07/M12 A3012 RMK A01 T00711119  RH  024%=      5-min Rain = 0
KTA1 240243Z 29007KT 07/M12 A3012 RMK A01 T00711119  RH  024%=      5-min Rain = 0
KTA1 240244Z 29006KT 07/M12 A3012 RMK A01 T00721119  RH  024%=      5-min Rain = 0
KTA1 240245Z 29007KT 07/M12 A3012 RMK A01 T00721119  RH  024%=      5-min Rain = 0
KTA1 240246Z 29008KT 07/M12 A3012 RMK A01 T00711120  RH  024%=      5-min Rain = 0
KTA1 240247Z 29008KT 07/M12 A3013 RMK A01 T00721120  RH  024%=      5-min Rain = 0
KTA1 240248Z 29008KT 07/M12 A3013 RMK A01 T00711120  RH  024%=      5-min Rain = 0
KTA1 240249Z 29008KT 07/M12 A3013 RMK A01 T00721120  RH  024%=      5-min Rain = 0
KTA1 240250Z 29008KT 07/M12 A3013 RMK A01 T00721120  RH  024%=      5-min Rain = 0
KTA1 240251Z 29008KT 07/M12 A3013 RMK A01 T00721120  RH  024%=      5-min Rain = 0
KTA1 240252Z 29008KT 07/M12 A3013 RMK A01 T00711120  RH  024%=      5-min Rain = 0
KTA1 240253Z 29008KT 07/M12 A3013 RMK A01 T00701120  RH  024%=      5-min Rain = 0
KTA1 240254Z 29008KT 07/M12 A3013 RMK A01 T00691121  RH  024%=      5-min Rain = 0
KTA1 240255Z 29008KT 07/M12 A3013 RMK A01 T00681121  RH  025%=      5-min Rain = 0
KTA1 240256Z 29008KT 07/M12 A3013 RMK A01 T00671120  RH  025%=      5-min Rain = 0
KTA1 240257Z 29009KT 07/M12 A3013 RMK A01 T00661120  RH  025%=      5-min Rain = 0
KTA1 240258Z 29008KT 07/M12 A3013 RMK A01 T00651120  RH  025%=      5-min Rain = 0
KTA1 240259Z 29008KT 07/M12 A3013 RMK A01 T00651120  RH  025%=      5-min Rain = 0
KTA1 240300Z 29009KT 07/M12 A3013 RMK A01 T00651119  RH  025%=      5-min Rain = 0
KTA1 240301Z 29008KT 07/M12 A3013 RMK A01 T00651119  RH  025%=      5-min Rain = 0
KTA1 240302Z 29008KT 07/M12 A3013 RMK A01 T00651119  RH  025%=      5-min Rain = 0
KTA1 240303Z 29008KT 07/M12 A3013 RMK A01 T00651119  RH  026%=      5-min Rain = 0
KTA1 240304Z 29009KT 07/M12 A3013 RMK A01 T00651119  RH  025%=      5-min Rain = 0
KTA1 240305Z 29008KT 07/M12 A3014 RMK A01 T00661119  RH  025%=      5-min Rain = 0
KTA1 240306Z 29009KT 07/M12 A3014 RMK A01 T00661119  RH  025%=      5-min Rain = 0
KTA1 240307Z 29009KT 07/M12 A3014 RMK A01 T00661119  RH  025%=      5-min Rain = 0
KTA1 240308Z 29009KT 07/M12 A3014 RMK A01 T00661119  RH  025%=      5-min Rain = 0
KTA1 240309Z 29009KT 07/M12 A3014 RMK A01 T00661119  RH  025%=      5-min Rain = 0
KTA1 240310Z 29009KT 07/M12 A3014 RMK A01 T00661119  RH  025%=      5-min Rain = 0
KTA1 240311Z 30008KT 07/M12 A3014 RMK A01 T00661119  RH  025%=      5-min Rain = 0
KTA1 240312Z 30006KT 07/M12 A3014 RMK A01 T00651119  RH  025%=      5-min Rain = 0
KTA1 240313Z 30007KT 06/M12 A3014 RMK A01 T00631120  RH  026%=      5-min Rain = 0
KTA1 240314Z 29008KT 06/M12 A3014 RMK A01 T00611120  RH  026%=      5-min Rain = 0
KTA1 240315Z 29009KT 06/M12 A3014 RMK A01 T00591121  RH  026%=      5-min Rain = 0
KTA1 240316Z 29009KT 06/M12 A3014 RMK A01 T00571122  RH  026%=      5-min Rain = 0
KTA1 240317Z 29009KT 06/M12 A3014 RMK A01 T00571121  RH  026%=      5-min Rain = 0
KTA1 240318Z 29009KT 06/M12 A3014 RMK A01 T00581120  RH  027%=      5-min Rain = 0
KTA1 240319Z 29009KT 06/M12 A3014 RMK A01 T00581119  RH  027%=      5-min Rain = 0
KTA1 240320Z 29010KT 06/M12 A3014 RMK A01 T00601119  RH  026%=      5-min Rain = 0
KTA1 240321Z 29008KT 06/M12 A3014 RMK A01 T00621119  RH  026%=      5-min Rain = 0
KTA1 240322Z 29009KT 06/M12 A3015 RMK A01 T00611120  RH  026%=      5-min Rain = 0
KTA1 240323Z 29008KT 06/M12 A3015 RMK A01 T00601120  RH  026%=      5-min Rain = 0
KTA1 240324Z 29009KT 06/M12 A3015 RMK A01 T00591120  RH  026%=      5-min Rain = 0
KTA1 240325Z 29009KT 06/M12 A3015 RMK A01 T00581119  RH  027%=      5-min Rain = 0
KTA1 240326Z 29009KT 06/M12 A3015 RMK A01 T00571119  RH  027%=      5-min Rain = 0
KTA1 240327Z 29009KT 06/M12 A3015 RMK A01 T00561120  RH  027%=      5-min Rain = 0
KTA1 240328Z 29009KT 06/M12 A3015 RMK A01 T00561119  RH  027%=      5-min Rain = 0
KTA1 240329Z 30009KT 06/M12 A3015 RMK A01 T00561119  RH  027%=      5-min Rain = 0
KTA1 240330Z 29009KT 06/M12 A3015 RMK A01 T00551119  RH  027%=      5-min Rain = 0
KTA1 240331Z 29009KT 06/M12 A3015 RMK A01 T00551120  RH  027%=      5-min Rain = 0
KTA1 240332Z 29009KT 06/M12 A3016 RMK A01 T00551120  RH  027%=      5-min Rain = 0
KTA1 240333Z 29010KT 06/M12 A3016 RMK A01 T00551120  RH  027%=      5-min Rain = 0
KTA1 240334Z 29010KT 05/M12 A3016 RMK A01 T00541120  RH  027%=      5-min Rain = 0
KTA1 240335Z 29009KT 06/M12 A3016 RMK A01 T00551121  RH  027%=      5-min Rain = 0
KTA1 240336Z 29010KT 05/M12 A3016 RMK A01 T00541121  RH  027%=      5-min Rain = 0
KTA1 240337Z 29010KT 06/M12 A3016 RMK A01 T00551120  RH  027%=      5-min Rain = 0
KTA1 240338Z 29010KT 06/M12 A3016 RMK A01 T00551121  RH  027%=      5-min Rain = 0
KTA1 240339Z 29010KT 06/M12 A3016 RMK A01 T00551122  RH  027%=      5-min Rain = 0
KTA1 240340Z 29011KT 06/M12 A3016 RMK A01 T00561121  RH  027%=      5-min Rain = 0
KTA1 240341Z 29010KT 06/M12 A3016 RMK A01 T00571121  RH  027%=      5-min Rain = 0
KTA1 240342Z 29010KT 06/M12 A3016 RMK A01 T00571121  RH  026%=      5-min Rain = 0
KTA1 240343Z 29009KT 06/M12 A3016 RMK A01 T00581121  RH  026%=      5-min Rain = 0
KTA1 240344Z 29009KT 06/M12 A3016 RMK A01 T00581120  RH  027%=      5-min Rain = 0
KTA1 240345Z 29009KT 06/M12 A3016 RMK A01 T00571120  RH  027%=      5-min Rain = 0
KTA1 240346Z 29009KT 06/M12 A3016 RMK A01 T00561120  RH  027%=      5-min Rain = 0
KTA1 240347Z 29009KT 06/M12 A3016 RMK A01 T00551120  RH  027%=      5-min Rain = 0
KTA1 240348Z 29009KT 05/M12 A3016 RMK A01 T00541120  RH  027%=      5-min Rain = 0
KTA1 240349Z 29009KT 05/M12 A3016 RMK A01 T00541120  RH  027%=      5-min Rain = 0
KTA1 240350Z 29009KT 05/M12 A3016 RMK A01 T00531119  RH  028%=      5-min Rain = 0
KTA1 240351Z 29009KT 05/M12 A3017 RMK A01 T00521119  RH  028%=      5-min Rain = 0
KTA1 240352Z 29009KT 05/M12 A3017 RMK A01 T00521120  RH  028%=      5-min Rain = 0
KTA1 240353Z 29009KT 05/M12 A3017 RMK A01 T00511120  RH  028%=      5-min Rain = 0
KTA1 240354Z 29009KT 05/M12 A3017 RMK A01 T00501120  RH  028%=      5-min Rain = 0
KTA1 240355Z 29010KT 05/M12 A3017 RMK A01 T00501120  RH  028%=      5-min Rain = 0
KTA1 240356Z 29009KT 05/M12 A3017 RMK A01 T00501120  RH  028%=      5-min Rain = 0
KTA1 240357Z 29009KT 05/M12 A3017 RMK A01 T00501119  RH  028%=      5-min Rain = 0
KTA1 240358Z 29009KT 05/M12 A3017 RMK A01 T00501119  RH  028%=      5-min Rain = 0
KTA1 240359Z 29009KT 05/M12 A3017 RMK A01 T00491120  RH  028%=      5-min Rain = 0
KTA1 240400Z 29009KT 05/M12 A3017 RMK A01 T00491120  RH  028%=      5-min Rain = 0
KTA1 240401Z 29008KT 05/M12 A3017 RMK A01 T00481120  RH  028%=      5-min Rain = 0
KTA1 240402Z 29008KT 05/M12 A3017 RMK A01 T00481120  RH  028%=      5-min Rain = 0
KTA1 240403Z 29008KT 05/M12 A3017 RMK A01 T00471120  RH  029%=      5-min Rain = 0
KTA1 240404Z 29007KT 05/M12 A3018 RMK A01 T00471120  RH  029%=      5-min Rain = 0
KTA1 240405Z 30007KT 05/M12 A3018 RMK A01 T00461120  RH  029%=      5-min Rain = 0
KTA1 240406Z 30008KT 05/M12 A3018 RMK A01 T00451121  RH  029%=      5-min Rain = 0
KTA1 240407Z 29007KT 04/M12 A3018 RMK A01 T00441120  RH  029%=      5-min Rain = 0
KTA1 240408Z 29007KT 04/M12 A3018 RMK A01 T00441120  RH  029%=      5-min Rain = 0
KTA1 240409Z 29007KT 04/M12 A3018 RMK A01 T00441120  RH  029%=      5-min Rain = 0
KTA1 240410Z 29007KT 04/M12 A3018 RMK A01 T00441120  RH  029%=      5-min Rain = 0
KTA1 240411Z 29007KT 04/M12 A3018 RMK A01 T00431121  RH  029%=      5-min Rain = 0
KTA1 240412Z 29007KT 04/M12 A3018 RMK A01 T00421121  RH  029%=      5-min Rain = 0
KTA1 240413Z 29007KT 04/M12 A3018 RMK A01 T00411121  RH  030%=      5-min Rain = 0
KTA1 240414Z 29007KT 04/M12 A3018 RMK A01 T00411121  RH  030%=      5-min Rain = 0
KTA1 240415Z 29007KT 04/M12 A3018 RMK A01 T00401121  RH  030%=      5-min Rain = 0
KTA1 240416Z 29007KT 04/M12 A3018 RMK A01 T00401120  RH  030%=      5-min Rain = 0
KTA1 240417Z 29007KT 04/M12 A3018 RMK A01 T00391120  RH  030%=      5-min Rain = 0
KTA1 240418Z 30007KT 04/M12 A3018 RMK A01 T00381120  RH  030%=      5-min Rain = 0
KTA1 240419Z 30005KT 04/M12 A3018 RMK A01 T00371120  RH  031%=      5-min Rain = 0
KTA1 240420Z 30005KT 04/M12 A3019 RMK A01 T00361121  RH  031%=      5-min Rain = 0
KTA1 240421Z 30006KT 03/M12 A3019 RMK A01 T00341122  RH  031%=      5-min Rain = 0
KTA1 240422Z 30006KT 03/M12 A3019 RMK A01 T00321122  RH  031%=      5-min Rain = 0
KTA1 240423Z 30007KT 03/M12 A3019 RMK A01 T00311122  RH  032%=      5-min Rain = 0
KTA1 240424Z 29007KT 03/M12 A3019 RMK A01 T00301122  RH  032%=      5-min Rain = 0
KTA1 240425Z 29007KT 03/M12 A3019 RMK A01 T00301122  RH  032%=      5-min Rain = 0
KTA1 240426Z 29006KT 03/M12 A3019 RMK A01 T00291123  RH  032%=      5-min Rain = 0
KTA1 240427Z 29007KT 03/M12 A3019 RMK A01 T00281123  RH  032%=      5-min Rain = 0
KTA1 240428Z 29006KT 03/M12 A3019 RMK A01 T00271123  RH  032%=      5-min Rain = 0
KTA1 240429Z 29006KT 03/M12 A3019 RMK A01 T00251123  RH  033%=      5-min Rain = 0
KTA1 240430Z 29007KT 02/M12 A3019 RMK A01 T00241122  RH  033%=      5-min Rain = 0
KTA1 240431Z 29007KT 02/M12 A3019 RMK A01 T00231122  RH  033%=      5-min Rain = 0
KTA1 240432Z 29007KT 02/M12 A3019 RMK A01 T00221121  RH  034%=      5-min Rain = 0
KTA1 240433Z 29008KT 02/M12 A3019 RMK A01 T00211121  RH  034%=      5-min Rain = 0
KTA1 240434Z 29008KT 02/M12 A3019 RMK A01 T00201121  RH  034%=      5-min Rain = 0
KTA1 240435Z 29008KT 02/M12 A3019 RMK A01 T00201121  RH  034%=      5-min Rain = 0
KTA1 240436Z 29008KT 02/M12 A3019 RMK A01 T00201121  RH  034%=      5-min Rain = 0
KTA1 240437Z 29008KT 02/M12 A302 RMK A01 T00191121  RH  034%=      5-min Rain = 0
KTA1 240438Z 29008KT 02/M12 A302 RMK A01 T00191121  RH  035%=      5-min Rain = 0
KTA1 240439Z 29009KT 02/M12 A302 RMK A01 T00181122  RH  035%=      5-min Rain = 0
KTA1 240440Z 29009KT 02/M12 A302 RMK A01 T00171122  RH  035%=      5-min Rain = 0
KTA1 240441Z 30008KT 02/M12 A302 RMK A01 T00171122  RH  035%=      5-min Rain = 0
KTA1 240442Z 30008KT 02/M12 A302 RMK A01 T00171123  RH  035%=      5-min Rain = 0
KTA1 240443Z 30008KT 02/M12 A302 RMK A01 T00181123  RH  035%=      5-min Rain = 0
KTA1 240444Z 30008KT 02/M12 A302 RMK A01 T00191123  RH  034%=      5-min Rain = 0
KTA1 240445Z 30008KT 02/M12 A302 RMK A01 T00191124  RH  034%=      5-min Rain = 0
KTA1 240446Z 29008KT 02/M12 A302 RMK A01 T00201123  RH  034%=      5-min Rain = 0
KTA1 240447Z 29007KT 02/M12 A302 RMK A01 T00201123  RH  034%=      5-min Rain = 0
KTA1 240448Z 29008KT 02/M12 A302 RMK A01 T00211123  RH  034%=      5-min Rain = 0
KTA1 240449Z 29009KT 02/M12 A302 RMK A01 T00231122  RH  034%=      5-min Rain = 0
KTA1 240450Z 29008KT 03/M12 A302 RMK A01 T00261119  RH  033%=      5-min Rain = 0
KTA1 240451Z 29008KT 03/M12 A302 RMK A01 T00281120  RH  033%=      5-min Rain = 0
KTA1 240452Z 29009KT 03/M12 A302 RMK A01 T00291120  RH  032%=      5-min Rain = 0
KTA1 240453Z 29009KT 03/M12 A302 RMK A01 T00311120  RH  032%=      5-min Rain = 0
KTA1 240454Z 29009KT 03/M12 A302 RMK A01 T00331120  RH  032%=      5-min Rain = 0
KTA1 240455Z 29009KT 03/M12 A302 RMK A01 T00341120  RH  031%=      5-min Rain = 0
KTA1 240456Z 29008KT 04/M12 A3021 RMK A01 T00351120  RH  031%=      5-min Rain = 0
KTA1 240457Z 29009KT 04/M12 A3021 RMK A01 T00361121  RH  031%=      5-min Rain = 0
KTA1 240458Z 29008KT 04/M12 A3021 RMK A01 T00361121  RH  031%=      5-min Rain = 0
KTA1 240459Z 29008KT 04/M12 A3021 RMK A01 T00361121  RH  031%=      5-min Rain = 0
KTA1 240500Z 29008KT 04/M12 A3021 RMK A01 T00371121  RH  031%=      5-min Rain = 0
KTA1 240501Z 29008KT 04/M12 A3021 RMK A01 T00371121  RH  031%=      5-min Rain = 0
KTA1 240502Z 29008KT 04/M12 A3021 RMK A01 T00371121  RH  031%=      5-min Rain = 0
KTA1 240503Z 29007KT 04/M12 A3021 RMK A01 T00371121  RH  031%=      5-min Rain = 0
KTA1 240504Z 29008KT 04/M12 A3021 RMK A01 T00371120  RH  031%=      5-min Rain = 0
KTA1 240505Z 29008KT 04/M12 A3021 RMK A01 T00361121  RH  031%=      5-min Rain = 0
KTA1 240506Z 29007KT 04/M12 A3021 RMK A01 T00351121  RH  031%=      5-min Rain = 0
KTA1 240507Z 29008KT 03/M12 A3021 RMK A01 T00341121  RH  031%=      5-min Rain = 0
KTA1 240508Z 28007KT 03/M12 A3021 RMK A01 T00341121  RH  031%=      5-min Rain = 0
KTA1 240509Z 28008KT 03/M12 A3021 RMK A01 T00331121  RH  031%=      5-min Rain = 0
KTA1 240510Z 29008KT 03/M12 A3021 RMK A01 T00311121  RH  032%=      5-min Rain = 0
KTA1 240511Z 29008KT 03/M12 A3021 RMK A01 T00301120  RH  032%=      5-min Rain = 0
KTA1 240512Z 29008KT 03/M12 A3021 RMK A01 T00301120  RH  032%=      5-min Rain = 0
KTA1 240513Z 29007KT 03/M12 A3021 RMK A01 T00291120  RH  032%=      5-min Rain = 0
KTA1 240514Z 29007KT 03/M12 A3021 RMK A01 T00291120  RH  033%=      5-min Rain = 0
KTA1 240515Z 29007KT 03/M12 A3021 RMK A01 T00291120  RH  033%=      5-min Rain = 0
KTA1 240516Z 29007KT 03/M12 A3021 RMK A01 T00281120  RH  033%=      5-min Rain = 0
KTA1 240517Z 28008KT 03/M12 A3022 RMK A01 T00281121  RH  033%=      5-min Rain = 0
KTA1 240518Z 29009KT 03/M12 A3021 RMK A01 T00271120  RH  033%=      5-min Rain = 0
KTA1 240519Z 29009KT 03/M12 A3021 RMK A01 T00271120  RH  033%=      5-min Rain = 0
KTA1 240520Z 29008KT 03/M12 A3021 RMK A01 T00291120  RH  032%=      5-min Rain = 0
KTA1 240521Z 29008KT 03/M12 A3022 RMK A01 T00291120  RH  032%=      5-min Rain = 0
KTA1 240522Z 29008KT 03/M12 A3022 RMK A01 T00291121  RH  032%=      5-min Rain = 0
KTA1 240523Z 32007KT 03/M12 A3022 RMK A01 T00291121  RH  032%=      5-min Rain = 0
KTA1 240524Z 00010KT 03/M12 A3023 RMK A01 T00281122  RH  032%=      5-min Rain = 0
KTA1 240525Z 34007KT 02/M12 A3023 RMK A01 T00221123  RH  033%=      5-min Rain = 0
KTA1 240526Z 33006KT 02/M12 A3022 RMK A01 T00181122  RH  035%=      5-min Rain = 0
KTA1 240527Z 33007KT 02/M12 A3022 RMK A01 T00171120  RH  035%=      5-min Rain = 0
KTA1 240528Z 36010KT 02/M12 A3023 RMK A01 T00171119  RH  036%=      5-min Rain = 0
KTA1 240529Z 35010KT 02/M12 A3023 RMK A01 T00161120  RH  036%=      5-min Rain = 0
KTA1 240530Z 34009KT 02/M12 A3022 RMK A01 T00151120  RH  036%=      5-min Rain = 0
KTA1 240531Z 34009KT 02/M12 A3022 RMK A01 T00151119  RH  036%=      5-min Rain = 0
KTA1 240532Z 33007KT 02/M12 A3023 RMK A01 T00161117  RH  037%=      5-min Rain = 0
KTA1 240533Z 32008KT 02/M12 A3022 RMK A01 T00171116  RH  037%=      5-min Rain = 0
KTA1 240534Z 32007KT 02/M11 A3022 RMK A01 T00181114  RH  037%=      5-min Rain = 0
KTA1 240535Z 32007KT 02/M12 A3023 RMK A01 T00201115  RH  036%=      5-min Rain = 0
KTA1 240536Z 32007KT 02/M12 A3023 RMK A01 T00211117  RH  035%=      5-min Rain = 0
KTA1 240537Z 32008KT 02/M12 A3023 RMK A01 T00201119  RH  035%=      5-min Rain = 0
KTA1 240538Z 31008KT 02/M12 A3023 RMK A01 T00191119  RH  035%=      5-min Rain = 0
KTA1 240539Z 31008KT 02/M12 A3023 RMK A01 T00181120  RH  035%=      5-min Rain = 0
KTA1 240540Z 31009KT 02/M12 A3023 RMK A01 T00161121  RH  035%=      5-min Rain = 0
KTA1 240541Z 31009KT 02/M12 A3023 RMK A01 T00151121  RH  036%=      5-min Rain = 0
KTA1 240542Z 31009KT 01/M12 A3022 RMK A01 T00141120  RH  036%=      5-min Rain = 0
KTA1 240543Z 31009KT 02/M12 A3022 RMK A01 T00151120  RH  036%=      5-min Rain = 0
KTA1 240544Z 31009KT 02/M12 A3023 RMK A01 T00151119  RH  036%=      5-min Rain = 0
KTA1 240545Z 31009KT 02/M12 A3022 RMK A01 T00151119  RH  036%=      5-min Rain = 0
KTA1 240546Z 31009KT 02/M12 A3023 RMK A01 T00161119  RH  036%=      5-min Rain = 0
KTA1 240547Z 31009KT 02/M12 A3023 RMK A01 T00171119  RH  036%=      5-min Rain = 0
KTA1 240548Z 31009KT 02/M12 A3023 RMK A01 T00181120  RH  035%=      5-min Rain = 0
KTA1 240549Z 31008KT 02/M12 A3023 RMK A01 T00181120  RH  035%=      5-min Rain = 0
KTA1 240550Z 30008KT 02/M12 A3023 RMK A01 T00181121  RH  035%=      5-min Rain = 0
KTA1 240551Z 30008KT 02/M12 A3023 RMK A01 T00181121  RH  035%=      5-min Rain = 0
KTA1 240552Z 30008KT 02/M12 A3023 RMK A01 T00191121  RH  035%=      5-min Rain = 0
KTA1 240553Z 30008KT 02/M12 A3023 RMK A01 T00191121  RH  035%=      5-min Rain = 0
KTA1 240554Z 30007KT 02/M12 A3023 RMK A01 T00201120  RH  035%=      5-min Rain = 0
KTA1 240555Z 30007KT 02/M12 A3023 RMK A01 T00201120  RH  035%=      5-min Rain = 0
KTA1 240556Z 30006KT 02/M12 A3023 RMK A01 T00201120  RH  035%=      5-min Rain = 0
KTA1 240557Z 30006KT 02/M12 A3023 RMK A01 T00201121  RH  035%=      5-min Rain = 0
KTA1 240558Z 30006KT 02/M12 A3023 RMK A01 T00191121  RH  035%=      5-min Rain = 0
KTA1 240559Z 30005KT 02/M12 A3023 RMK A01 T00181121  RH  035%=      5-min Rain = 0

Page generated in 0.0914 seconds.